<?xml version="1.0" encoding="UTF-8" standalone="no" ?><gpx xmlns="http://www.topografix.com/GPX/1/1" xmlns:gpxx="http://www.garmin.com/xmlschemas/GpxExtensions/v3" xmlns:wptx1="http://www.garmin.com/xmlschemas/WaypointExtension/v1" xmlns:gpxtpx="http://www.garmin.com/xmlschemas/TrackPointExtension/v1" creator="Dakota 20" version="1.1" xmlns:xsi="http://www.w3.org/2001/XMLSchema-instance" xsi:schemaLocation="http://www.topografix.com/GPX/1/1 http://www.topografix.com/GPX/1/1/gpx.xsd http://www.garmin.com/xmlschemas/GpxExtensions/v3 http://www8.garmin.com/xmlschemas/GpxExtensionsv3.xsd http://www.garmin.com/xmlschemas/WaypointExtension/v1 http://www8.garmin.com/xmlschemas/WaypointExtensionv1.xsd http://www.garmin.com/xmlschemas/TrackPointExtension/v1 http://www.garmin.com/xmlschemas/TrackPointExtensionv1.xsd"><metadata><link href="http://www.garmin.com"><text>Garmin International</text></link><time>2011-11-09T15:03:54Z</time></metadata><trk><name>Current Track: 09 NOV 2011 09:59</name><extensions><gpxx:TrackExtension><gpxx:DisplayColor>Black</gpxx:DisplayColor></gpxx:TrackExtension></extensions><trkseg><trkpt lat="51.9869335368" lon="-1.7043121532"><ele>126.55</ele><time>2011-11-09T09:59:07Z</time></trkpt><trkpt lat="51.9869335368" lon="-1.7043121532"><ele>124.63</ele><time>2011-11-09T09:59:22Z</time></trkpt><trkpt lat="51.9869351294" lon="-1.7043074593"><ele>124.63</ele><time>2011-11-09T09:59:29Z</time></trkpt><trkpt lat="51.9869351294" lon="-1.7043074593"><ele>124.63</ele><time>2011-11-09T09:59:44Z</time></trkpt><trkpt lat="51.9869351294" lon="-1.7043074593"><ele>124.15</ele><time>2011-11-09T10:00:02Z</time></trkpt><trkpt lat="51.9869366381" lon="-1.7043091357"><ele>124.15</ele><time>2011-11-09T10:00:19Z</time></trkpt><trkpt lat="51.9869478699" lon="-1.7043142486"><ele>124.15</ele><time>2011-11-09T10:00:29Z</time></trkpt><trkpt lat="51.9869748596" lon="-1.7042688187"><ele>124.15</ele><time>2011-11-09T10:00:35Z</time></trkpt><trkpt lat="51.9869865943" lon="-1.7042483669"><ele>123.67</ele><time>2011-11-09T10:00:37Z</time></trkpt><trkpt lat="51.9870290067" lon="-1.7042049486"><ele>123.67</ele><time>2011-11-09T10:00:41Z</time></trkpt><trkpt lat="51.9870577566" lon="-1.7041614465"><ele>123.19</ele><time>2011-11-09T10:00:45Z</time></trkpt><trkpt lat="51.9871305954" lon="-1.7040955648"><ele>123.19</ele><time>2011-11-09T10:00:52Z</time></trkpt><trkpt lat="51.9871955551" lon="-1.7040560860"><ele>123.19</ele><time>2011-11-09T10:00:57Z</time></trkpt><trkpt lat="51.9872580841" lon="-1.7040264141"><ele>123.19</ele><time>2011-11-09T10:01:02Z</time></trkpt><trkpt lat="51.9873140752" lon="-1.7040004302"><ele>123.67</ele><time>2011-11-09T10:01:07Z</time></trkpt><trkpt lat="51.9873739220" lon="-1.7039897013"><ele>122.71</ele><time>2011-11-09T10:01:12Z</time></trkpt><trkpt lat="51.9874887541" lon="-1.7039835826"><ele>122.71</ele><time>2011-11-09T10:01:22Z</time></trkpt><trkpt lat="51.9875775184" lon="-1.7039815709"><ele>122.71</ele><time>2011-11-09T10:01:29Z</time></trkpt><trkpt lat="51.9876754191" lon="-1.7039560061"><ele>122.22</ele><time>2011-11-09T10:01:37Z</time></trkpt><trkpt lat="51.9877765048" lon="-1.7039223947"><ele>122.71</ele><time>2011-11-09T10:01:45Z</time></trkpt><trkpt lat="51.9878500141" lon="-1.7039054632"><ele>122.71</ele><time>2011-11-09T10:01:52Z</time></trkpt><trkpt lat="51.9878641795" lon="-1.7038943153"><ele>122.22</ele><time>2011-11-09T10:01:54Z</time></trkpt><trkpt lat="51.9879790116" lon="-1.7039127555"><ele>122.22</ele><time>2011-11-09T10:02:02Z</time></trkpt><trkpt lat="51.9880050793" lon="-1.7039026972"><ele>122.71</ele><time>2011-11-09T10:02:09Z</time></trkpt><trkpt lat="51.9880050793" lon="-1.7039026972"><ele>122.71</ele><time>2011-11-09T10:02:12Z</time></trkpt><trkpt lat="51.9880277105" lon="-1.7039145995"><ele>122.71</ele><time>2011-11-09T10:02:14Z</time></trkpt><trkpt lat="51.9880797621" lon="-1.7039246578"><ele>122.22</ele><time>2011-11-09T10:02:23Z</time></trkpt><trkpt lat="51.9881066680" lon="-1.7039203830"><ele>122.71</ele><time>2011-11-09T10:02:26Z</time></trkpt><trkpt lat="51.9881640840" lon="-1.7039022781"><ele>122.22</ele><time>2011-11-09T10:02:31Z</time></trkpt><trkpt lat="51.9882491603" lon="-1.7038766295"><ele>122.22</ele><time>2011-11-09T10:02:37Z</time></trkpt><trkpt lat="51.9883227535" lon="-1.7038742825"><ele>122.22</ele><time>2011-11-09T10:02:44Z</time></trkpt><trkpt lat="51.9883488212" lon="-1.7038735282"><ele>122.71</ele><time>2011-11-09T10:02:47Z</time></trkpt><trkpt lat="51.9883625675" lon="-1.7038707621"><ele>122.22</ele><time>2011-11-09T10:02:48Z</time></trkpt><trkpt lat="51.9884509966" lon="-1.7039222270"><ele>122.71</ele><time>2011-11-09T10:02:57Z</time></trkpt><trkpt lat="51.9885460474" lon="-1.7038545851"><ele>122.22</ele><time>2011-11-09T10:03:04Z</time></trkpt><trkpt lat="51.9885818381" lon="-1.7038296070"><ele>122.22</ele><time>2011-11-09T10:03:07Z</time></trkpt><trkpt lat="51.9886674173" lon="-1.7038148548"><ele>122.22</ele><time>2011-11-09T10:03:14Z</time></trkpt><trkpt lat="51.9887156971" lon="-1.7037639767"><ele>122.22</ele><time>2011-11-09T10:03:18Z</time></trkpt><trkpt lat="51.9887531642" lon="-1.7037304491"><ele>122.22</ele><time>2011-11-09T10:03:21Z</time></trkpt><trkpt lat="51.9887981750" lon="-1.7037377413"><ele>122.71</ele><time>2011-11-09T10:03:25Z</time></trkpt><trkpt lat="51.9888755400" lon="-1.7036949936"><ele>122.71</ele><time>2011-11-09T10:03:32Z</time></trkpt><trkpt lat="51.9889344648" lon="-1.7036788166"><ele>122.71</ele><time>2011-11-09T10:03:37Z</time></trkpt><trkpt lat="51.9889868516" lon="-1.7036545929"><ele>122.71</ele><time>2011-11-09T10:03:41Z</time></trkpt><trkpt lat="51.9890110753" lon="-1.7036637291"><ele>122.71</ele><time>2011-11-09T10:03:43Z</time></trkpt><trkpt lat="51.9890575111" lon="-1.7036498152"><ele>122.22</ele><time>2011-11-09T10:03:48Z</time></trkpt><trkpt lat="51.9891399890" lon="-1.7036306206"><ele>122.22</ele><time>2011-11-09T10:03:55Z</time></trkpt><trkpt lat="51.9892124925" lon="-1.7036371585"><ele>122.71</ele><time>2011-11-09T10:04:03Z</time></trkpt><trkpt lat="51.9892554078" lon="-1.7036337219"><ele>122.71</ele><time>2011-11-09T10:04:07Z</time></trkpt><trkpt lat="51.9893227145" lon="-1.7036519106"><ele>122.71</ele><time>2011-11-09T10:04:13Z</time></trkpt><trkpt lat="51.9893557392" lon="-1.7036656570"><ele>122.71</ele><time>2011-11-09T10:04:16Z</time></trkpt><trkpt lat="51.9893958047" lon="-1.7036559340"><ele>122.71</ele><time>2011-11-09T10:04:20Z</time></trkpt><trkpt lat="51.9894082937" lon="-1.7036700994"><ele>122.71</ele><time>2011-11-09T10:04:21Z</time></trkpt><trkpt lat="51.9894769415" lon="-1.7036962509"><ele>123.19</ele><time>2011-11-09T10:04:29Z</time></trkpt><trkpt lat="51.9895344414" lon="-1.7036567722"><ele>123.19</ele><time>2011-11-09T10:04:35Z</time></trkpt><trkpt lat="51.9896050170" lon="-1.7036126833"><ele>123.19</ele><time>2011-11-09T10:04:39Z</time></trkpt><trkpt lat="51.9897765946" lon="-1.7035600450"><ele>122.71</ele><time>2011-11-09T10:04:51Z</time></trkpt><trkpt lat="51.9898810331" lon="-1.7035296187"><ele>123.19</ele><time>2011-11-09T10:05:00Z</time></trkpt><trkpt lat="51.9899482559" lon="-1.7035361566"><ele>123.19</ele><time>2011-11-09T10:05:05Z</time></trkpt><trkpt lat="51.9900417980" lon="-1.7035106756"><ele>123.19</ele><time>2011-11-09T10:05:15Z</time></trkpt><trkpt lat="51.9900879823" lon="-1.7035165429"><ele>123.19</ele><time>2011-11-09T10:05:19Z</time></trkpt><trkpt lat="51.9901599828" lon="-1.7035113461"><ele>123.67</ele><time>2011-11-09T10:05:26Z</time></trkpt><trkpt lat="51.9902144652" lon="-1.7035274394"><ele>123.67</ele><time>2011-11-09T10:05:33Z</time></trkpt><trkpt lat="51.9902284630" lon="-1.7035300378"><ele>123.67</ele><time>2011-11-09T10:05:36Z</time></trkpt><trkpt lat="51.9902461488" lon="-1.7035387550"><ele>123.67</ele><time>2011-11-09T10:05:37Z</time></trkpt><trkpt lat="51.9903499167" lon="-1.7035163753"><ele>123.67</ele><time>2011-11-09T10:05:44Z</time></trkpt><trkpt lat="51.9903727993" lon="-1.7035904713"><ele>123.67</ele><time>2011-11-09T10:05:52Z</time></trkpt><trkpt lat="51.9903755654" lon="-1.7037545051"><ele>124.15</ele><time>2011-11-09T10:06:00Z</time></trkpt><trkpt lat="51.9903752301" lon="-1.7040140089"><ele>123.67</ele><time>2011-11-09T10:06:11Z</time></trkpt><trkpt lat="51.9903633278" lon="-1.7042068765"><ele>124.15</ele><time>2011-11-09T10:06:20Z</time></trkpt><trkpt lat="51.9903531019" lon="-1.7044556513"><ele>124.15</ele><time>2011-11-09T10:06:30Z</time></trkpt><trkpt lat="51.9903691113" lon="-1.7045342736"><ele>123.67</ele><time>2011-11-09T10:06:35Z</time></trkpt><trkpt lat="51.9903904013" lon="-1.7046900932"><ele>124.15</ele><time>2011-11-09T10:06:43Z</time></trkpt><trkpt lat="51.9903821871" lon="-1.7048648559"><ele>123.67</ele><time>2011-11-09T10:06:51Z</time></trkpt><trkpt lat="51.9903464802" lon="-1.7049430590"><ele>124.15</ele><time>2011-11-09T10:06:57Z</time></trkpt><trkpt lat="51.9903506711" lon="-1.7050150596"><ele>124.63</ele><time>2011-11-09T10:07:04Z</time></trkpt><trkpt lat="51.9903519284" lon="-1.7050833721"><ele>124.63</ele><time>2011-11-09T10:07:08Z</time></trkpt><trkpt lat="51.9903809298" lon="-1.7052681092"><ele>124.63</ele><time>2011-11-09T10:07:18Z</time></trkpt><trkpt lat="51.9903783314" lon="-1.7052875552"><ele>124.63</ele><time>2011-11-09T10:07:19Z</time></trkpt><trkpt lat="51.9903709553" lon="-1.7054479010"><ele>124.63</ele><time>2011-11-09T10:07:28Z</time></trkpt><trkpt lat="51.9903846178" lon="-1.7055438738"><ele>124.63</ele><time>2011-11-09T10:07:34Z</time></trkpt><trkpt lat="51.9903967716" lon="-1.7056658305"><ele>124.63</ele><time>2011-11-09T10:07:42Z</time></trkpt><trkpt lat="51.9904054888" lon="-1.7057198938"><ele>125.11</ele><time>2011-11-09T10:07:46Z</time></trkpt><trkpt lat="51.9904295448" lon="-1.7058210634"><ele>124.63</ele><time>2011-11-09T10:07:54Z</time></trkpt><trkpt lat="51.9904320594" lon="-1.7059389129"><ele>124.63</ele><time>2011-11-09T10:08:02Z</time></trkpt><trkpt lat="51.9904332329" lon="-1.7060333770"><ele>124.15</ele><time>2011-11-09T10:08:10Z</time></trkpt><trkpt lat="51.9904311374" lon="-1.7060433514"><ele>124.15</ele><time>2011-11-09T10:08:16Z</time></trkpt><trkpt lat="51.9904311374" lon="-1.7060433514"><ele>124.63</ele><time>2011-11-09T10:08:25Z</time></trkpt><trkpt lat="51.9904365856" lon="-1.7060718499"><ele>124.15</ele><time>2011-11-09T10:08:35Z</time></trkpt><trkpt lat="51.9904365856" lon="-1.7060718499"><ele>124.15</ele><time>2011-11-09T10:08:39Z</time></trkpt><trkpt lat="51.9904614799" lon="-1.7061382346"><ele>124.63</ele><time>2011-11-09T10:08:42Z</time></trkpt><trkpt lat="51.9904972706" lon="-1.7063245643"><ele>124.63</ele><time>2011-11-09T10:08:50Z</time></trkpt><trkpt lat="51.9905017968" lon="-1.7064952198"><ele>124.15</ele><time>2011-11-09T10:08:58Z</time></trkpt><trkpt lat="51.9904994499" lon="-1.7066370416"><ele>124.63</ele><time>2011-11-09T10:09:05Z</time></trkpt><trkpt lat="51.9904945046" lon="-1.7067968007"><ele>124.15</ele><time>2011-11-09T10:09:12Z</time></trkpt><trkpt lat="51.9904930796" lon="-1.7069559731"><ele>124.15</ele><time>2011-11-09T10:09:20Z</time></trkpt><trkpt lat="51.9904872123" lon="-1.7071155645"><ele>124.15</ele><time>2011-11-09T10:09:28Z</time></trkpt><trkpt lat="51.9904841110" lon="-1.7072319053"><ele>124.15</ele><time>2011-11-09T10:09:35Z</time></trkpt><trkpt lat="51.9904824346" lon="-1.7074013874"><ele>124.63</ele><time>2011-11-09T10:09:44Z</time></trkpt><trkpt lat="51.9904797524" lon="-1.7075266968"><ele>124.63</ele><time>2011-11-09T10:09:50Z</time></trkpt><trkpt lat="51.9904760644" lon="-1.7076716200"><ele>124.63</ele><time>2011-11-09T10:09:57Z</time></trkpt><trkpt lat="51.9904760644" lon="-1.7078041378"><ele>124.63</ele><time>2011-11-09T10:10:04Z</time></trkpt><trkpt lat="51.9904760644" lon="-1.7078221589"><ele>124.63</ele><time>2011-11-09T10:10:05Z</time></trkpt><trkpt lat="51.9904675987" lon="-1.7079611309"><ele>125.11</ele><time>2011-11-09T10:10:13Z</time></trkpt><trkpt lat="51.9904664252" lon="-1.7080678325"><ele>124.63</ele><time>2011-11-09T10:10:20Z</time></trkpt><trkpt lat="51.9904620666" lon="-1.7081123404"><ele>125.11</ele><time>2011-11-09T10:10:23Z</time></trkpt><trkpt lat="51.9904803392" lon="-1.7082005180"><ele>128.47</ele><time>2011-11-09T10:10:28Z</time></trkpt><trkpt lat="51.9904805068" lon="-1.7082157731"><ele>125.59</ele><time>2011-11-09T10:10:29Z</time></trkpt><trkpt lat="51.9904772379" lon="-1.7082549166"><ele>124.63</ele><time>2011-11-09T10:10:31Z</time></trkpt><trkpt lat="51.9904874638" lon="-1.7084037792"><ele>125.11</ele><time>2011-11-09T10:10:40Z</time></trkpt><trkpt lat="51.9905108493" lon="-1.7085663043"><ele>125.11</ele><time>2011-11-09T10:10:50Z</time></trkpt><trkpt lat="51.9905060716" lon="-1.7086911108"><ele>125.11</ele><time>2011-11-09T10:10:57Z</time></trkpt><trkpt lat="51.9905211590" lon="-1.7088422365"><ele>125.11</ele><time>2011-11-09T10:11:07Z</time></trkpt><trkpt lat="51.9905435387" lon="-1.7089526262"><ele>124.15</ele><time>2011-11-09T10:11:15Z</time></trkpt><trkpt lat="51.9905435387" lon="-1.7089526262"><ele>127.99</ele><time>2011-11-09T10:11:16Z</time></trkpt><trkpt lat="51.9905467238" lon="-1.7089681327"><ele>125.11</ele><time>2011-11-09T10:11:18Z</time></trkpt><trkpt lat="51.9905689359" lon="-1.7090360261"><ele>125.59</ele><time>2011-11-09T10:11:23Z</time></trkpt><trkpt lat="51.9905776531" lon="-1.7090669554"><ele>126.07</ele><time>2011-11-09T10:11:25Z</time></trkpt><trkpt lat="51.9906170480" lon="-1.7091838829"><ele>126.07</ele><time>2011-11-09T10:11:32Z</time></trkpt><trkpt lat="51.9906498212" lon="-1.7092776764"><ele>126.07</ele><time>2011-11-09T10:11:39Z</time></trkpt><trkpt lat="51.9906825107" lon="-1.7093992978"><ele>126.07</ele><time>2011-11-09T10:11:47Z</time></trkpt><trkpt lat="51.9907206483" lon="-1.7095435504"><ele>126.07</ele><time>2011-11-09T10:11:55Z</time></trkpt><trkpt lat="51.9907763880" lon="-1.7096963525"><ele>126.07</ele><time>2011-11-09T10:12:04Z</time></trkpt><trkpt lat="51.9908242486" lon="-1.7098077480"><ele>125.59</ele><time>2011-11-09T10:12:12Z</time></trkpt><trkpt lat="51.9908607937" lon="-1.7098920699"><ele>126.07</ele><time>2011-11-09T10:12:19Z</time></trkpt><trkpt lat="51.9909220655" lon="-1.7099836841"><ele>125.59</ele><time>2011-11-09T10:12:27Z</time></trkpt><trkpt lat="51.9909957424" lon="-1.7100963369"><ele>126.07</ele><time>2011-11-09T10:12:37Z</time></trkpt><trkpt lat="51.9910322037" lon="-1.7102386616"><ele>125.59</ele><time>2011-11-09T10:12:46Z</time></trkpt><trkpt lat="51.9910570979" lon="-1.7103805672"><ele>125.59</ele><time>2011-11-09T10:12:53Z</time></trkpt><trkpt lat="51.9910568465" lon="-1.7103939783"><ele>125.59</ele><time>2011-11-09T10:12:54Z</time></trkpt><trkpt lat="51.9910521526" lon="-1.7104959860"><ele>125.59</ele><time>2011-11-09T10:13:01Z</time></trkpt><trkpt lat="51.9910455309" lon="-1.7105093133"><ele>125.59</ele><time>2011-11-09T10:13:09Z</time></trkpt><trkpt lat="51.9910448603" lon="-1.7105138395"><ele>125.59</ele><time>2011-11-09T10:13:21Z</time></trkpt><trkpt lat="51.9910454471" lon="-1.7105324473"><ele>125.59</ele><time>2011-11-09T10:13:30Z</time></trkpt><trkpt lat="51.9910415076" lon="-1.7105886899"><ele>125.59</ele><time>2011-11-09T10:13:37Z</time></trkpt><trkpt lat="51.9910332933" lon="-1.7106815614"><ele>125.11</ele><time>2011-11-09T10:13:42Z</time></trkpt><trkpt lat="51.9910444412" lon="-1.7108200304"><ele>125.11</ele><time>2011-11-09T10:13:49Z</time></trkpt><trkpt lat="51.9910592772" lon="-1.7109451722"><ele>125.59</ele><time>2011-11-09T10:13:56Z</time></trkpt><trkpt lat="51.9910837524" lon="-1.7110978067"><ele>125.59</ele><time>2011-11-09T10:14:05Z</time></trkpt><trkpt lat="51.9910980854" lon="-1.7112273909"><ele>126.07</ele><time>2011-11-09T10:14:11Z</time></trkpt><trkpt lat="51.9911137596" lon="-1.7113850545"><ele>126.07</ele><time>2011-11-09T10:14:19Z</time></trkpt><trkpt lat="51.9911270868" lon="-1.7114679515"><ele>125.59</ele><time>2011-11-09T10:14:28Z</time></trkpt><trkpt lat="51.9911347982" lon="-1.7114967853"><ele>126.07</ele><time>2011-11-09T10:14:40Z</time></trkpt><trkpt lat="51.9911354687" lon="-1.7115138005"><ele>125.59</ele><time>2011-11-09T10:14:47Z</time></trkpt><trkpt lat="51.9911371451" lon="-1.7115650978"><ele>126.07</ele><time>2011-11-09T10:14:50Z</time></trkpt><trkpt lat="51.9911472872" lon="-1.7116199993"><ele>126.07</ele><time>2011-11-09T10:14:53Z</time></trkpt><trkpt lat="51.9911534898" lon="-1.7117889784"><ele>126.07</ele><time>2011-11-09T10:15:02Z</time></trkpt><trkpt lat="51.9911688287" lon="-1.7119218316"><ele>126.07</ele><time>2011-11-09T10:15:10Z</time></trkpt><trkpt lat="51.9911874365" lon="-1.7120516673"><ele>126.55</ele><time>2011-11-09T10:15:18Z</time></trkpt><trkpt lat="51.9912091456" lon="-1.7122007813"><ele>126.07</ele><time>2011-11-09T10:15:26Z</time></trkpt><trkpt lat="51.9912211318" lon="-1.7123472132"><ele>127.03</ele><time>2011-11-09T10:15:34Z</time></trkpt><trkpt lat="51.9912403263" lon="-1.7124855146"><ele>127.03</ele><time>2011-11-09T10:15:42Z</time></trkpt><trkpt lat="51.9912524801" lon="-1.7126000952"><ele>126.55</ele><time>2011-11-09T10:15:50Z</time></trkpt><trkpt lat="51.9912627898" lon="-1.7127111554"><ele>127.03</ele><time>2011-11-09T10:15:58Z</time></trkpt><trkpt lat="51.9912799727" lon="-1.7128135823"><ele>127.03</ele><time>2011-11-09T10:16:04Z</time></trkpt><trkpt lat="51.9912968203" lon="-1.7129367962"><ele>127.03</ele><time>2011-11-09T10:16:09Z</time></trkpt><trkpt lat="51.9913163502" lon="-1.7131272331"><ele>127.03</ele><time>2011-11-09T10:16:18Z</time></trkpt><trkpt lat="51.9913374726" lon="-1.7132344376"><ele>127.03</ele><time>2011-11-09T10:16:25Z</time></trkpt><trkpt lat="51.9913487043" lon="-1.7133812886"><ele>127.03</ele><time>2011-11-09T10:16:34Z</time></trkpt><trkpt lat="51.9913549069" lon="-1.7134099547"><ele>127.03</ele><time>2011-11-09T10:16:36Z</time></trkpt><trkpt lat="51.9913776219" lon="-1.7135257926"><ele>127.03</ele><time>2011-11-09T10:16:46Z</time></trkpt><trkpt lat="51.9913777057" lon="-1.7135328334"><ele>127.03</ele><time>2011-11-09T10:16:48Z</time></trkpt><trkpt lat="51.9913829025" lon="-1.7135907523"><ele>127.03</ele><time>2011-11-09T10:16:52Z</time></trkpt><trkpt lat="51.9913984928" lon="-1.7137194145"><ele>127.03</ele><time>2011-11-09T10:17:00Z</time></trkpt><trkpt lat="51.9914192799" lon="-1.7138195783"><ele>127.51</ele><time>2011-11-09T10:17:06Z</time></trkpt><trkpt lat="51.9914477784" lon="-1.7139806785"><ele>127.03</ele><time>2011-11-09T10:17:15Z</time></trkpt><trkpt lat="51.9914498739" lon="-1.7139985319"><ele>127.51</ele><time>2011-11-09T10:17:16Z</time></trkpt><trkpt lat="51.9914537296" lon="-1.7141238414"><ele>127.51</ele><time>2011-11-09T10:17:23Z</time></trkpt><trkpt lat="51.9914636202" lon="-1.7142606340"><ele>127.51</ele><time>2011-11-09T10:17:31Z</time></trkpt><trkpt lat="51.9914697390" lon="-1.7142999452"><ele>127.51</ele><time>2011-11-09T10:17:34Z</time></trkpt><trkpt lat="51.9915065356" lon="-1.7144509871"><ele>127.99</ele><time>2011-11-09T10:17:42Z</time></trkpt><trkpt lat="51.9915284123" lon="-1.7145744525"><ele>127.51</ele><time>2011-11-09T10:17:50Z</time></trkpt><trkpt lat="51.9915520493" lon="-1.7147324514"><ele>127.51</ele><time>2011-11-09T10:18:00Z</time></trkpt><trkpt lat="51.9915727526" lon="-1.7148452718"><ele>127.51</ele><time>2011-11-09T10:18:09Z</time></trkpt><trkpt lat="51.9915665500" lon="-1.7149004247"><ele>127.99</ele><time>2011-11-09T10:18:17Z</time></trkpt><trkpt lat="51.9915637840" lon="-1.7149106506"><ele>127.99</ele><time>2011-11-09T10:18:29Z</time></trkpt><trkpt lat="51.9915602636" lon="-1.7149428371"><ele>127.99</ele><time>2011-11-09T10:18:40Z</time></trkpt><trkpt lat="51.9915679749" lon="-1.7150063720"><ele>127.99</ele><time>2011-11-09T10:18:44Z</time></trkpt><trkpt lat="51.9915920310" lon="-1.7151359562"><ele>127.99</ele><time>2011-11-09T10:18:52Z</time></trkpt><trkpt lat="51.9915941264" lon="-1.7151529714"><ele>128.47</ele><time>2011-11-09T10:18:53Z</time></trkpt><trkpt lat="51.9916161709" lon="-1.7152995709"><ele>127.99</ele><time>2011-11-09T10:19:02Z</time></trkpt><trkpt lat="51.9916214515" lon="-1.7153513711"><ele>128.47</ele><time>2011-11-09T10:19:05Z</time></trkpt><trkpt lat="51.9916337729" lon="-1.7155132256"><ele>127.99</ele><time>2011-11-09T10:19:15Z</time></trkpt><trkpt lat="51.9916483574" lon="-1.7156170774"><ele>128.47</ele><time>2011-11-09T10:19:23Z</time></trkpt><trkpt lat="51.9916626904" lon="-1.7157332506"><ele>128.47</ele><time>2011-11-09T10:19:31Z</time></trkpt><trkpt lat="51.9916852377" lon="-1.7158418801"><ele>128.47</ele><time>2011-11-09T10:19:39Z</time></trkpt><trkpt lat="51.9917047676" lon="-1.7159817740"><ele>128.95</ele><time>2011-11-09T10:19:49Z</time></trkpt><trkpt lat="51.9917259738" lon="-1.7160820216"><ele>128.47</ele><time>2011-11-09T10:19:58Z</time></trkpt><trkpt lat="51.9917357806" lon="-1.7161972728"><ele>128.47</ele><time>2011-11-09T10:20:06Z</time></trkpt><trkpt lat="51.9917554781" lon="-1.7163235042"><ele>128.47</ele><time>2011-11-09T10:20:15Z</time></trkpt><trkpt lat="51.9917703141" lon="-1.7164270207"><ele>128.95</ele><time>2011-11-09T10:20:23Z</time></trkpt><trkpt lat="51.9917818811" lon="-1.7165619694"><ele>128.95</ele><time>2011-11-09T10:20:33Z</time></trkpt><trkpt lat="51.9917944539" lon="-1.7166784778"><ele>128.95</ele><time>2011-11-09T10:20:41Z</time></trkpt><trkpt lat="51.9918078650" lon="-1.7168056313"><ele>128.95</ele><time>2011-11-09T10:20:49Z</time></trkpt><trkpt lat="51.9918270595" lon="-1.7169223074"><ele>128.95</ele><time>2011-11-09T10:20:58Z</time></trkpt><trkpt lat="51.9918330945" lon="-1.7170283385"><ele>129.43</ele><time>2011-11-09T10:21:07Z</time></trkpt><trkpt lat="51.9918370340" lon="-1.7170679010"><ele>129.43</ele><time>2011-11-09T10:21:10Z</time></trkpt><trkpt lat="51.9918543845" lon="-1.7171870079"><ele>129.92</ele><time>2011-11-09T10:21:18Z</time></trkpt><trkpt lat="51.9918567315" lon="-1.7173172627"><ele>129.92</ele><time>2011-11-09T10:21:27Z</time></trkpt><trkpt lat="51.9918735791" lon="-1.7174313404"><ele>129.43</ele><time>2011-11-09T10:21:35Z</time></trkpt><trkpt lat="51.9918910135" lon="-1.7175412271"><ele>129.92</ele><time>2011-11-09T10:21:43Z</time></trkpt><trkpt lat="51.9919107947" lon="-1.7176371999"><ele>129.92</ele><time>2011-11-09T10:21:50Z</time></trkpt><trkpt lat="51.9919145666" lon="-1.7176520359"><ele>129.92</ele><time>2011-11-09T10:21:51Z</time></trkpt><trkpt lat="51.9919278100" lon="-1.7177846376"><ele>129.92</ele><time>2011-11-09T10:22:00Z</time></trkpt><trkpt lat="51.9919365272" lon="-1.7179099470"><ele>130.40</ele><time>2011-11-09T10:22:08Z</time></trkpt><trkpt lat="51.9919467531" lon="-1.7180421297"><ele>129.92</ele><time>2011-11-09T10:22:16Z</time></trkpt><trkpt lat="51.9919698033" lon="-1.7181576323"><ele>130.40</ele><time>2011-11-09T10:22:24Z</time></trkpt><trkpt lat="51.9919764251" lon="-1.7182561196"><ele>130.40</ele><time>2011-11-09T10:22:31Z</time></trkpt><trkpt lat="51.9919916801" lon="-1.7183526792"><ele>130.40</ele><time>2011-11-09T10:22:39Z</time></trkpt><trkpt lat="51.9919948652" lon="-1.7183862068"><ele>130.40</ele><time>2011-11-09T10:22:42Z</time></trkpt><trkpt lat="51.9920141436" lon="-1.7184996139"><ele>130.40</ele><time>2011-11-09T10:22:51Z</time></trkpt><trkpt lat="51.9920307398" lon="-1.7185782362"><ele>130.40</ele><time>2011-11-09T10:22:59Z</time></trkpt><trkpt lat="51.9920353498" lon="-1.7187042162"><ele>130.88</ele><time>2011-11-09T10:23:08Z</time></trkpt><trkpt lat="51.9920524489" lon="-1.7188268434"><ele>130.88</ele><time>2011-11-09T10:23:19Z</time></trkpt><trkpt lat="51.9920661952" lon="-1.7188832536"><ele>131.36</ele><time>2011-11-09T10:23:26Z</time></trkpt><trkpt lat="51.9920703862" lon="-1.7188902106"><ele>130.88</ele><time>2011-11-09T10:23:36Z</time></trkpt><trkpt lat="51.9920703862" lon="-1.7188902106"><ele>130.88</ele><time>2011-11-09T10:23:43Z</time></trkpt><trkpt lat="51.9920703862" lon="-1.7188902106"><ele>131.36</ele><time>2011-11-09T10:23:54Z</time></trkpt><trkpt lat="51.9920663629" lon="-1.7189021129"><ele>131.36</ele><time>2011-11-09T10:24:03Z</time></trkpt><trkpt lat="51.9920663629" lon="-1.7189021129"><ele>130.88</ele><time>2011-11-09T10:24:13Z</time></trkpt><trkpt lat="51.9920723978" lon="-1.7189351376"><ele>131.36</ele><time>2011-11-09T10:24:23Z</time></trkpt><trkpt lat="51.9920830429" lon="-1.7190073896"><ele>130.88</ele><time>2011-11-09T10:24:33Z</time></trkpt><trkpt lat="51.9920941070" lon="-1.7191575933"><ele>130.88</ele><time>2011-11-09T10:24:40Z</time></trkpt><trkpt lat="51.9921138883" lon="-1.7193202022"><ele>130.88</ele><time>2011-11-09T10:24:48Z</time></trkpt><trkpt lat="51.9921419676" lon="-1.7194510438"><ele>131.36</ele><time>2011-11-09T10:24:57Z</time></trkpt><trkpt lat="51.9921583962" lon="-1.7195821367"><ele>131.84</ele><time>2011-11-09T10:25:06Z</time></trkpt><trkpt lat="51.9921780936" lon="-1.7197070271"><ele>131.36</ele><time>2011-11-09T10:25:14Z</time></trkpt><trkpt lat="51.9921910018" lon="-1.7198346835"><ele>131.36</ele><time>2011-11-09T10:25:22Z</time></trkpt><trkpt lat="51.9922019821" lon="-1.7199318297"><ele>131.36</ele><time>2011-11-09T10:25:28Z</time></trkpt><trkpt lat="51.9922137167" lon="-1.7200955283"><ele>131.84</ele><time>2011-11-09T10:25:37Z</time></trkpt><trkpt lat="51.9922169019" lon="-1.7202440556"><ele>131.84</ele><time>2011-11-09T10:25:45Z</time></trkpt><trkpt lat="51.9922246970" lon="-1.7202716321"><ele>131.84</ele><time>2011-11-09T10:25:47Z</time></trkpt><trkpt lat="51.9922537822" lon="-1.7204405274"><ele>131.84</ele><time>2011-11-09T10:25:58Z</time></trkpt><trkpt lat="51.9922602363" lon="-1.7205784097"><ele>131.84</ele><time>2011-11-09T10:26:06Z</time></trkpt><trkpt lat="51.9922763295" lon="-1.7206959240"><ele>131.84</ele><time>2011-11-09T10:26:14Z</time></trkpt><trkpt lat="51.9922937639" lon="-1.7207986023"><ele>132.32</ele><time>2011-11-09T10:26:21Z</time></trkpt><trkpt lat="51.9923098572" lon="-1.7209355626"><ele>132.32</ele><time>2011-11-09T10:26:30Z</time></trkpt><trkpt lat="51.9923376851" lon="-1.7210453656"><ele>132.32</ele><time>2011-11-09T10:26:38Z</time></trkpt><trkpt lat="51.9923494197" lon="-1.7211416736"><ele>132.32</ele><time>2011-11-09T10:26:46Z</time></trkpt><trkpt lat="51.9923598133" lon="-1.7212306894"><ele>132.32</ele><time>2011-11-09T10:26:53Z</time></trkpt><trkpt lat="51.9923666865" lon="-1.7212742753"><ele>132.80</ele><time>2011-11-09T10:27:02Z</time></trkpt><trkpt lat="51.9923588913" lon="-1.7213437613"><ele>132.32</ele><time>2011-11-09T10:27:11Z</time></trkpt><trkpt lat="51.9923669379" lon="-1.7214627005"><ele>132.80</ele><time>2011-11-09T10:27:19Z</time></trkpt><trkpt lat="51.9923800975" lon="-1.7215576675"><ele>132.32</ele><time>2011-11-09T10:27:27Z</time></trkpt><trkpt lat="51.9923933409" lon="-1.7216577474"><ele>132.80</ele><time>2011-11-09T10:27:34Z</time></trkpt><trkpt lat="51.9924039021" lon="-1.7217642814"><ele>133.28</ele><time>2011-11-09T10:27:41Z</time></trkpt><trkpt lat="51.9924050756" lon="-1.7217713222"><ele>133.28</ele><time>2011-11-09T10:27:47Z</time></trkpt><trkpt lat="51.9924050756" lon="-1.7217713222"><ele>132.80</ele><time>2011-11-09T10:27:52Z</time></trkpt><trkpt lat="51.9924050756" lon="-1.7217713222"><ele>132.80</ele><time>2011-11-09T10:27:59Z</time></trkpt><trkpt lat="51.9924050756" lon="-1.7217713222"><ele>132.80</ele><time>2011-11-09T10:28:04Z</time></trkpt><trkpt lat="51.9924122002" lon="-1.7218719050"><ele>132.80</ele><time>2011-11-09T10:28:09Z</time></trkpt><trkpt lat="51.9924312271" lon="-1.7220226116"><ele>133.28</ele><time>2011-11-09T10:28:17Z</time></trkpt><trkpt lat="51.9924515113" lon="-1.7221599072"><ele>133.28</ele><time>2011-11-09T10:28:24Z</time></trkpt><trkpt lat="51.9924626593" lon="-1.7222389486"><ele>133.28</ele><time>2011-11-09T10:28:28Z</time></trkpt><trkpt lat="51.9924761541" lon="-1.7223509308"><ele>133.28</ele><time>2011-11-09T10:28:34Z</time></trkpt><trkpt lat="51.9925121125" lon="-1.7224824429"><ele>133.28</ele><time>2011-11-09T10:28:43Z</time></trkpt><trkpt lat="51.9925325643" lon="-1.7226033099"><ele>134.24</ele><time>2011-11-09T10:28:50Z</time></trkpt><trkpt lat="51.9925587159" lon="-1.7227377556"><ele>134.24</ele><time>2011-11-09T10:28:58Z</time></trkpt><trkpt lat="51.9925758149" lon="-1.7228793260"><ele>134.24</ele><time>2011-11-09T10:29:06Z</time></trkpt><trkpt lat="51.9925900642" lon="-1.7230051383"><ele>134.24</ele><time>2011-11-09T10:29:13Z</time></trkpt><trkpt lat="51.9925933331" lon="-1.7230420187"><ele>134.24</ele><time>2011-11-09T10:29:15Z</time></trkpt><trkpt lat="51.9926173054" lon="-1.7231520731"><ele>134.72</ele><time>2011-11-09T10:29:23Z</time></trkpt><trkpt lat="51.9926197361" lon="-1.7231883667"><ele>134.72</ele><time>2011-11-09T10:29:25Z</time></trkpt><trkpt lat="51.9926286209" lon="-1.7232280970"><ele>134.72</ele><time>2011-11-09T10:29:27Z</time></trkpt><trkpt lat="51.9926447980" lon="-1.7233722657"><ele>134.72</ele><time>2011-11-09T10:29:35Z</time></trkpt><trkpt lat="51.9926690217" lon="-1.7234769557"><ele>134.72</ele><time>2011-11-09T10:29:43Z</time></trkpt><trkpt lat="51.9926712010" lon="-1.7235669773"><ele>135.20</ele><time>2011-11-09T10:29:52Z</time></trkpt><trkpt lat="51.9926727097" lon="-1.7236465216"><ele>135.20</ele><time>2011-11-09T10:30:02Z</time></trkpt><trkpt lat="51.9926692732" lon="-1.7236601003"><ele>135.20</ele><time>2011-11-09T10:30:13Z</time></trkpt><trkpt lat="51.9926628191" lon="-1.7237235513"><ele>135.20</ele><time>2011-11-09T10:30:21Z</time></trkpt><trkpt lat="51.9926842768" lon="-1.7237408180"><ele>134.72</ele><time>2011-11-09T10:30:23Z</time></trkpt><trkpt lat="51.9927381724" lon="-1.7237975635"><ele>135.68</ele><time>2011-11-09T10:30:30Z</time></trkpt><trkpt lat="51.9927806687" lon="-1.7238939553"><ele>135.20</ele><time>2011-11-09T10:30:38Z</time></trkpt><trkpt lat="51.9927994441" lon="-1.7239321768"><ele>135.68</ele><time>2011-11-09T10:30:45Z</time></trkpt><trkpt lat="51.9928498194" lon="-1.7241523694"><ele>135.20</ele><time>2011-11-09T10:30:55Z</time></trkpt><trkpt lat="51.9928865321" lon="-1.7243170738"><ele>135.20</ele><time>2011-11-09T10:31:03Z</time></trkpt><trkpt lat="51.9929002784" lon="-1.7243818659"><ele>135.68</ele><time>2011-11-09T10:31:12Z</time></trkpt><trkpt lat="51.9929274358" lon="-1.7244852986"><ele>135.68</ele><time>2011-11-09T10:31:21Z</time></trkpt><trkpt lat="51.9929782301" lon="-1.7245782539"><ele>135.68</ele><time>2011-11-09T10:31:31Z</time></trkpt><trkpt lat="51.9930277672" lon="-1.7247023899"><ele>136.64</ele><time>2011-11-09T10:31:40Z</time></trkpt><trkpt lat="51.9931087364" lon="-1.7248348240"><ele>136.64</ele><time>2011-11-09T10:31:50Z</time></trkpt><trkpt lat="51.9931536634" lon="-1.7249366641"><ele>136.64</ele><time>2011-11-09T10:31:59Z</time></trkpt><trkpt lat="51.9931931421" lon="-1.7250323854"><ele>136.64</ele><time>2011-11-09T10:32:09Z</time></trkpt><trkpt lat="51.9931931421" lon="-1.7250323854"><ele>136.64</ele><time>2011-11-09T10:32:21Z</time></trkpt><trkpt lat="51.9931931421" lon="-1.7250323854"><ele>136.64</ele><time>2011-11-09T10:32:29Z</time></trkpt><trkpt lat="51.9932496361" lon="-1.7251423560"><ele>137.13</ele><time>2011-11-09T10:32:39Z</time></trkpt><trkpt lat="51.9933121651" lon="-1.7253182083"><ele>137.61</ele><time>2011-11-09T10:32:48Z</time></trkpt><trkpt lat="51.9933700841" lon="-1.7254649755"><ele>138.57</ele><time>2011-11-09T10:32:57Z</time></trkpt><trkpt lat="51.9934337866" lon="-1.7255873512"><ele>137.61</ele><time>2011-11-09T10:33:07Z</time></trkpt><trkpt lat="51.9934530649" lon="-1.7256618664"><ele>138.57</ele><time>2011-11-09T10:33:15Z</time></trkpt><trkpt lat="51.9934731815" lon="-1.7257380579"><ele>138.57</ele><time>2011-11-09T10:33:22Z</time></trkpt><trkpt lat="51.9935017638" lon="-1.7260126490"><ele>138.57</ele><time>2011-11-09T10:33:30Z</time></trkpt><trkpt lat="51.9935355429" lon="-1.7261026707"><ele>139.05</ele><time>2011-11-09T10:33:36Z</time></trkpt><trkpt lat="51.9935623650" lon="-1.7261812929"><ele>139.05</ele><time>2011-11-09T10:33:44Z</time></trkpt><trkpt lat="51.9936522190" lon="-1.7263922654"><ele>139.53</ele><time>2011-11-09T10:33:53Z</time></trkpt><trkpt lat="51.9936646242" lon="-1.7264557164"><ele>140.01</ele><time>2011-11-09T10:34:00Z</time></trkpt><trkpt lat="51.9936999120" lon="-1.7265791818"><ele>140.01</ele><time>2011-11-09T10:34:08Z</time></trkpt><trkpt lat="51.9937308412" lon="-1.7266839556"><ele>140.01</ele><time>2011-11-09T10:34:17Z</time></trkpt><trkpt lat="51.9937733375" lon="-1.7268169764"><ele>140.49</ele><time>2011-11-09T10:34:27Z</time></trkpt><trkpt lat="51.9937937055" lon="-1.7268948443"><ele>140.49</ele><time>2011-11-09T10:34:34Z</time></trkpt><trkpt lat="51.9938324299" lon="-1.7269861232"><ele>140.01</ele><time>2011-11-09T10:34:41Z</time></trkpt><trkpt lat="51.9938524626" lon="-1.7270776536"><ele>140.97</ele><time>2011-11-09T10:34:49Z</time></trkpt><trkpt lat="51.9939034246" lon="-1.7271973472"><ele>140.49</ele><time>2011-11-09T10:35:00Z</time></trkpt><trkpt lat="51.9939579908" lon="-1.7273248360"><ele>140.49</ele><time>2011-11-09T10:35:08Z</time></trkpt><trkpt lat="51.9939869083" lon="-1.7273900472"><ele>140.49</ele><time>2011-11-09T10:35:15Z</time></trkpt><trkpt lat="51.9940359425" lon="-1.7274911329"><ele>140.49</ele><time>2011-11-09T10:35:24Z</time></trkpt><trkpt lat="51.9940706436" lon="-1.7275975831"><ele>140.49</ele><time>2011-11-09T10:35:32Z</time></trkpt><trkpt lat="51.9941053446" lon="-1.7276969925"><ele>141.45</ele><time>2011-11-09T10:35:41Z</time></trkpt><trkpt lat="51.9941208512" lon="-1.7277611978"><ele>140.97</ele><time>2011-11-09T10:35:46Z</time></trkpt><trkpt lat="51.9941383693" lon="-1.7278715875"><ele>141.45</ele><time>2011-11-09T10:35:54Z</time></trkpt><trkpt lat="51.9941075239" lon="-1.7279295903"><ele>140.97</ele><time>2011-11-09T10:36:03Z</time></trkpt><trkpt lat="51.9941464160" lon="-1.7280140799"><ele>141.45</ele><time>2011-11-09T10:36:10Z</time></trkpt><trkpt lat="51.9941534568" lon="-1.7280677240"><ele>141.93</ele><time>2011-11-09T10:36:19Z</time></trkpt><trkpt lat="51.9941594917" lon="-1.7281319294"><ele>142.41</ele><time>2011-11-09T10:36:25Z</time></trkpt><trkpt lat="51.9942604937" lon="-1.7282857373"><ele>142.41</ele><time>2011-11-09T10:36:33Z</time></trkpt><trkpt lat="51.9942765031" lon="-1.7283036746"><ele>141.93</ele><time>2011-11-09T10:36:35Z</time></trkpt><trkpt lat="51.9943749066" lon="-1.7284859810"><ele>143.37</ele><time>2011-11-09T10:36:44Z</time></trkpt><trkpt lat="51.9944012258" lon="-1.7285732366"><ele>143.37</ele><time>2011-11-09T10:36:52Z</time></trkpt><trkpt lat="51.9944557082" lon="-1.7287043296"><ele>143.85</ele><time>2011-11-09T10:37:00Z</time></trkpt><trkpt lat="51.9944738969" lon="-1.7287876457"><ele>143.85</ele><time>2011-11-09T10:37:06Z</time></trkpt><trkpt lat="51.9945122860" lon="-1.7288708780"><ele>143.37</ele><time>2011-11-09T10:37:12Z</time></trkpt><trkpt lat="51.9945209194" lon="-1.7288917489"><ele>143.85</ele><time>2011-11-09T10:37:13Z</time></trkpt><trkpt lat="51.9945692830" lon="-1.7290655058"><ele>143.85</ele><time>2011-11-09T10:37:22Z</time></trkpt><trkpt lat="51.9946140423" lon="-1.7291880492"><ele>144.34</ele><time>2011-11-09T10:37:31Z</time></trkpt><trkpt lat="51.9946702849" lon="-1.7292974330"><ele>144.34</ele><time>2011-11-09T10:37:39Z</time></trkpt><trkpt lat="51.9947061595" lon="-1.7293847725"><ele>144.34</ele><time>2011-11-09T10:37:45Z</time></trkpt><trkpt lat="51.9947692752" lon="-1.7295128480"><ele>144.34</ele><time>2011-11-09T10:37:53Z</time></trkpt><trkpt lat="51.9948113523" lon="-1.7296382412"><ele>144.34</ele><time>2011-11-09T10:38:01Z</time></trkpt><trkpt lat="51.9948155433" lon="-1.7297281791"><ele>144.82</ele><time>2011-11-09T10:38:08Z</time></trkpt><trkpt lat="51.9948214106" lon="-1.7297476251"><ele>144.82</ele><time>2011-11-09T10:38:10Z</time></trkpt><trkpt lat="51.9948626496" lon="-1.7298430111"><ele>144.82</ele><time>2011-11-09T10:38:18Z</time></trkpt><trkpt lat="51.9948913157" lon="-1.7299501318"><ele>145.30</ele><time>2011-11-09T10:38:26Z</time></trkpt><trkpt lat="51.9949278608" lon="-1.7300537322"><ele>145.30</ele><time>2011-11-09T10:38:33Z</time></trkpt><trkpt lat="51.9949807506" lon="-1.7301723361"><ele>145.30</ele><time>2011-11-09T10:38:43Z</time></trkpt><trkpt lat="51.9950006995" lon="-1.7302685603"><ele>145.78</ele><time>2011-11-09T10:38:51Z</time></trkpt><trkpt lat="51.9950246718" lon="-1.7303420696"><ele>145.78</ele><time>2011-11-09T10:38:59Z</time></trkpt><trkpt lat="51.9950681739" lon="-1.7304275651"><ele>146.26</ele><time>2011-11-09T10:39:05Z</time></trkpt><trkpt lat="51.9950681739" lon="-1.7304275651"><ele>146.26</ele><time>2011-11-09T10:39:18Z</time></trkpt><trkpt lat="51.9950792380" lon="-1.7304325104"><ele>147.22</ele><time>2011-11-09T10:39:27Z</time></trkpt><trkpt lat="51.9951128494" lon="-1.7304850649"><ele>147.22</ele><time>2011-11-09T10:39:35Z</time></trkpt><trkpt lat="51.9951495621" lon="-1.7306286469"><ele>147.70</ele><time>2011-11-09T10:39:44Z</time></trkpt><trkpt lat="51.9951757975" lon="-1.7306915112"><ele>148.18</ele><time>2011-11-09T10:39:50Z</time></trkpt><trkpt lat="51.9952434395" lon="-1.7307826225"><ele>148.18</ele><time>2011-11-09T10:39:58Z</time></trkpt><trkpt lat="51.9953330420" lon="-1.7309085187"><ele>148.66</ele><time>2011-11-09T10:40:06Z</time></trkpt><trkpt lat="51.9954279251" lon="-1.7309992108"><ele>149.14</ele><time>2011-11-09T10:40:13Z</time></trkpt><trkpt lat="51.9954772945" lon="-1.7310537770"><ele>149.14</ele><time>2011-11-09T10:40:20Z</time></trkpt><trkpt lat="51.9955448527" lon="-1.7310647573"><ele>149.14</ele><time>2011-11-09T10:40:29Z</time></trkpt><trkpt lat="51.9955497980" lon="-1.7310666014"><ele>149.62</ele><time>2011-11-09T10:40:40Z</time></trkpt><trkpt lat="51.9955554977" lon="-1.7310640030"><ele>149.14</ele><time>2011-11-09T10:40:49Z</time></trkpt><trkpt lat="51.9956015982" lon="-1.7310304753"><ele>149.62</ele><time>2011-11-09T10:40:58Z</time></trkpt><trkpt lat="51.9956691563" lon="-1.7309858836"><ele>149.62</ele><time>2011-11-09T10:41:07Z</time></trkpt><trkpt lat="51.9956722576" lon="-1.7309771664"><ele>149.62</ele><time>2011-11-09T10:41:23Z</time></trkpt><trkpt lat="51.9957234710" lon="-1.7308647651"><ele>149.62</ele><time>2011-11-09T10:41:33Z</time></trkpt><trkpt lat="51.9957799651" lon="-1.7307227757"><ele>149.62</ele><time>2011-11-09T10:41:43Z</time></trkpt><trkpt lat="51.9958082959" lon="-1.7306581512"><ele>149.14</ele><time>2011-11-09T10:41:53Z</time></trkpt><trkpt lat="51.9958614372" lon="-1.7305483483"><ele>149.14</ele><time>2011-11-09T10:42:01Z</time></trkpt><trkpt lat="51.9959199429" lon="-1.7304462567"><ele>149.14</ele><time>2011-11-09T10:42:09Z</time></trkpt><trkpt lat="51.9959616847" lon="-1.7303368729"><ele>149.14</ele><time>2011-11-09T10:42:18Z</time></trkpt><trkpt lat="51.9960328471" lon="-1.7302507907"><ele>148.66</ele><time>2011-11-09T10:42:25Z</time></trkpt><trkpt lat="51.9960784446" lon="-1.7301930394"><ele>149.14</ele><time>2011-11-09T10:42:31Z</time></trkpt><trkpt lat="51.9961824641" lon="-1.7300223839"><ele>148.66</ele><time>2011-11-09T10:42:42Z</time></trkpt><trkpt lat="51.9962556381" lon="-1.7299271654"><ele>148.18</ele><time>2011-11-09T10:42:49Z</time></trkpt><trkpt lat="51.9963283930" lon="-1.7298088130"><ele>148.66</ele><time>2011-11-09T10:42:58Z</time></trkpt><trkpt lat="51.9963986333" lon="-1.7297189590"><ele>148.66</ele><time>2011-11-09T10:43:07Z</time></trkpt><trkpt lat="51.9964226056" lon="-1.7296944000"><ele>148.66</ele><time>2011-11-09T10:43:10Z</time></trkpt><trkpt lat="51.9965030719" lon="-1.7295934819"><ele>148.66</ele><time>2011-11-09T10:43:19Z</time></trkpt><trkpt lat="51.9965609070" lon="-1.7295163684"><ele>148.66</ele><time>2011-11-09T10:43:26Z</time></trkpt><trkpt lat="51.9966055825" lon="-1.7294258438"><ele>149.14</ele><time>2011-11-09T10:43:33Z</time></trkpt><trkpt lat="51.9966339972" lon="-1.7292325571"><ele>149.14</ele><time>2011-11-09T10:43:41Z</time></trkpt><trkpt lat="51.9966966938" lon="-1.7291146237"><ele>149.14</ele><time>2011-11-09T10:43:49Z</time></trkpt><trkpt lat="51.9967550319" lon="-1.7290319782"><ele>149.62</ele><time>2011-11-09T10:43:56Z</time></trkpt><trkpt lat="51.9968086760" lon="-1.7289326526"><ele>150.10</ele><time>2011-11-09T10:44:03Z</time></trkpt><trkpt lat="51.9968731329" lon="-1.7288374342"><ele>149.62</ele><time>2011-11-09T10:44:11Z</time></trkpt><trkpt lat="51.9969277829" lon="-1.7287130468"><ele>149.62</ele><time>2011-11-09T10:44:19Z</time></trkpt><trkpt lat="51.9969878811" lon="-1.7286133021"><ele>149.62</ele><time>2011-11-09T10:44:27Z</time></trkpt><trkpt lat="51.9970453810" lon="-1.7285268847"><ele>150.10</ele><time>2011-11-09T10:44:35Z</time></trkpt><trkpt lat="51.9971013721" lon="-1.7284121364"><ele>149.62</ele><time>2011-11-09T10:44:44Z</time></trkpt><trkpt lat="51.9971382525" lon="-1.7283655331"><ele>150.58</ele><time>2011-11-09T10:44:53Z</time></trkpt><trkpt lat="51.9971483946" lon="-1.7283259705"><ele>150.10</ele><time>2011-11-09T10:45:07Z</time></trkpt><trkpt lat="51.9971702714" lon="-1.7282746732"><ele>150.10</ele><time>2011-11-09T10:45:15Z</time></trkpt><trkpt lat="51.9972222392" lon="-1.7282016668"><ele>150.10</ele><time>2011-11-09T10:45:23Z</time></trkpt><trkpt lat="51.9972404279" lon="-1.7281671334"><ele>150.10</ele><time>2011-11-09T10:45:27Z</time></trkpt><trkpt lat="51.9972634781" lon="-1.7281267326"><ele>150.10</ele><time>2011-11-09T10:45:30Z</time></trkpt><trkpt lat="51.9973227382" lon="-1.7280164268"><ele>150.10</ele><time>2011-11-09T10:45:39Z</time></trkpt><trkpt lat="51.9973665755" lon="-1.7279479466"><ele>149.62</ele><time>2011-11-09T10:45:48Z</time></trkpt><trkpt lat="51.9973729458" lon="-1.7279380560"><ele>149.62</ele><time>2011-11-09T10:45:49Z</time></trkpt><trkpt lat="51.9974348880" lon="-1.7278803047"><ele>150.10</ele><time>2011-11-09T10:45:58Z</time></trkpt><trkpt lat="51.9974430185" lon="-1.7278713360"><ele>150.10</ele><time>2011-11-09T10:46:08Z</time></trkpt><trkpt lat="51.9974430185" lon="-1.7278713360"><ele>150.10</ele><time>2011-11-09T10:46:23Z</time></trkpt><trkpt lat="51.9974480476" lon="-1.7278712522"><ele>150.10</ele><time>2011-11-09T10:46:31Z</time></trkpt><trkpt lat="51.9974480476" lon="-1.7278712522"><ele>150.10</ele><time>2011-11-09T10:46:48Z</time></trkpt><trkpt lat="51.9974559266" lon="-1.7278566677"><ele>150.10</ele><time>2011-11-09T10:46:57Z</time></trkpt><trkpt lat="51.9974724390" lon="-1.7278353777"><ele>150.58</ele><time>2011-11-09T10:47:10Z</time></trkpt><trkpt lat="51.9975026976" lon="-1.7277424224"><ele>150.58</ele><time>2011-11-09T10:47:17Z</time></trkpt><trkpt lat="51.9975157734" lon="-1.7276909575"><ele>150.10</ele><time>2011-11-09T10:47:27Z</time></trkpt><trkpt lat="51.9975358900" lon="-1.7276496347"><ele>149.62</ele><time>2011-11-09T10:47:39Z</time></trkpt><trkpt lat="51.9975878578" lon="-1.7275203858"><ele>150.10</ele><time>2011-11-09T10:47:47Z</time></trkpt><trkpt lat="51.9975959044" lon="-1.7275081482"><ele>150.58</ele><time>2011-11-09T10:47:59Z</time></trkpt><trkpt lat="51.9976009335" lon="-1.7275083996"><ele>150.10</ele><time>2011-11-09T10:48:12Z</time></trkpt><trkpt lat="51.9976031967" lon="-1.7275098246"><ele>150.58</ele><time>2011-11-09T10:48:24Z</time></trkpt><trkpt lat="51.9976031967" lon="-1.7275098246"><ele>150.10</ele><time>2011-11-09T10:48:46Z</time></trkpt><trkpt lat="51.9976033643" lon="-1.7275031190"><ele>150.58</ele><time>2011-11-09T10:49:04Z</time></trkpt><trkpt lat="51.9976294320" lon="-1.7274331301"><ele>150.10</ele><time>2011-11-09T10:49:12Z</time></trkpt><trkpt lat="51.9977072999" lon="-1.7272762209"><ele>150.58</ele><time>2011-11-09T10:49:21Z</time></trkpt><trkpt lat="51.9977925438" lon="-1.7271433678"><ele>150.10</ele><time>2011-11-09T10:49:30Z</time></trkpt><trkpt lat="51.9978446793" lon="-1.7270573694"><ele>149.62</ele><time>2011-11-09T10:49:37Z</time></trkpt><trkpt lat="51.9978886843" lon="-1.7269857880"><ele>150.58</ele><time>2011-11-09T10:49:45Z</time></trkpt><trkpt lat="51.9978940487" lon="-1.7269505002"><ele>150.10</ele><time>2011-11-09T10:49:57Z</time></trkpt><trkpt lat="51.9979043584" lon="-1.7269272823"><ele>149.62</ele><time>2011-11-09T10:50:04Z</time></trkpt><trkpt lat="51.9979200326" lon="-1.7269023880"><ele>150.10</ele><time>2011-11-09T10:50:06Z</time></trkpt><trkpt lat="51.9980031811" lon="-1.7267912440"><ele>149.62</ele><time>2011-11-09T10:50:16Z</time></trkpt><trkpt lat="51.9980478566" lon="-1.7267474066"><ele>150.10</ele><time>2011-11-09T10:50:20Z</time></trkpt><trkpt lat="51.9981615152" lon="-1.7266261205"><ele>150.58</ele><time>2011-11-09T10:50:30Z</time></trkpt><trkpt lat="51.9982328452" lon="-1.7265349254"><ele>150.10</ele><time>2011-11-09T10:50:37Z</time></trkpt><trkpt lat="51.9983074442" lon="-1.7264618352"><ele>150.10</ele><time>2011-11-09T10:50:44Z</time></trkpt><trkpt lat="51.9983972982" lon="-1.7263431475"><ele>149.14</ele><time>2011-11-09T10:50:53Z</time></trkpt><trkpt lat="51.9984836318" lon="-1.7262496054"><ele>149.14</ele><time>2011-11-09T10:51:02Z</time></trkpt><trkpt lat="51.9985734858" lon="-1.7261579912"><ele>148.66</ele><time>2011-11-09T10:51:10Z</time></trkpt><trkpt lat="51.9986440614" lon="-1.7260613479"><ele>149.14</ele><time>2011-11-09T10:51:18Z</time></trkpt><trkpt lat="51.9987463206" lon="-1.7259634472"><ele>148.66</ele><time>2011-11-09T10:51:27Z</time></trkpt><trkpt lat="51.9988269545" lon="-1.7258673906"><ele>147.70</ele><time>2011-11-09T10:51:36Z</time></trkpt><trkpt lat="51.9989229273" lon="-1.7257812247"><ele>147.22</ele><time>2011-11-09T10:51:45Z</time></trkpt><trkpt lat="51.9990080036" lon="-1.7257052008"><ele>147.22</ele><time>2011-11-09T10:51:53Z</time></trkpt><trkpt lat="51.9990812615" lon="-1.7256512213"><ele>147.22</ele><time>2011-11-09T10:52:01Z</time></trkpt><trkpt lat="51.9990807585" lon="-1.7256473657"><ele>147.22</ele><time>2011-11-09T10:52:11Z</time></trkpt><trkpt lat="51.9990807585" lon="-1.7256473657"><ele>147.70</ele><time>2011-11-09T10:52:23Z</time></trkpt><trkpt lat="51.9991002046" lon="-1.7256463598"><ele>147.22</ele><time>2011-11-09T10:52:34Z</time></trkpt><trkpt lat="51.9991002046" lon="-1.7256463598"><ele>147.22</ele><time>2011-11-09T10:52:45Z</time></trkpt><trkpt lat="51.9991041441" lon="-1.7256461922"><ele>147.22</ele><time>2011-11-09T10:52:56Z</time></trkpt><trkpt lat="51.9991107658" lon="-1.7256632075"><ele>147.70</ele><time>2011-11-09T10:53:05Z</time></trkpt><trkpt lat="51.9991260208" lon="-1.7256699130"><ele>147.22</ele><time>2011-11-09T10:53:13Z</time></trkpt><trkpt lat="51.9991257694" lon="-1.7256655544"><ele>147.22</ele><time>2011-11-09T10:53:21Z</time></trkpt><trkpt lat="51.9991038926" lon="-1.7256663926"><ele>147.22</ele><time>2011-11-09T10:53:29Z</time></trkpt><trkpt lat="51.9991038926" lon="-1.7256663926"><ele>147.22</ele><time>2011-11-09T10:53:41Z</time></trkpt><trkpt lat="51.9991038926" lon="-1.7256663926"><ele>147.22</ele><time>2011-11-09T10:53:52Z</time></trkpt><trkpt lat="51.9991031382" lon="-1.7256624531"><ele>147.22</ele><time>2011-11-09T10:54:08Z</time></trkpt><trkpt lat="51.9991031382" lon="-1.7256624531"><ele>147.22</ele><time>2011-11-09T10:54:24Z</time></trkpt><trkpt lat="51.9991031382" lon="-1.7256624531"><ele>146.74</ele><time>2011-11-09T10:54:35Z</time></trkpt><trkpt lat="51.9991028029" lon="-1.7256642133"><ele>152.51</ele><time>2011-11-09T10:54:36Z</time></trkpt><trkpt lat="51.9991028029" lon="-1.7256642133"><ele>147.22</ele><time>2011-11-09T10:54:37Z</time></trkpt><trkpt lat="51.9991028029" lon="-1.7256642133"><ele>147.22</ele><time>2011-11-09T10:54:51Z</time></trkpt><trkpt lat="51.9991028029" lon="-1.7256642133"><ele>147.22</ele><time>2011-11-09T10:55:06Z</time></trkpt><trkpt lat="51.9991007913" lon="-1.7256606091"><ele>147.22</ele><time>2011-11-09T10:55:21Z</time></trkpt><trkpt lat="51.9991007913" lon="-1.7256606091"><ele>147.22</ele><time>2011-11-09T10:55:34Z</time></trkpt><trkpt lat="51.9991007913" lon="-1.7256606091"><ele>147.22</ele><time>2011-11-09T10:55:47Z</time></trkpt><trkpt lat="51.9991016295" lon="-1.7256549094"><ele>147.22</ele><time>2011-11-09T10:56:03Z</time></trkpt><trkpt lat="51.9991016295" lon="-1.7256549094"><ele>146.74</ele><time>2011-11-09T10:56:19Z</time></trkpt><trkpt lat="51.9991018809" lon="-1.7256619502"><ele>147.22</ele><time>2011-11-09T10:56:35Z</time></trkpt><trkpt lat="51.9991018809" lon="-1.7256619502"><ele>147.22</ele><time>2011-11-09T10:56:46Z</time></trkpt><trkpt lat="51.9991018809" lon="-1.7256619502"><ele>147.22</ele><time>2011-11-09T10:56:57Z</time></trkpt><trkpt lat="51.9991018809" lon="-1.7256619502"><ele>147.22</ele><time>2011-11-09T10:57:12Z</time></trkpt><trkpt lat="51.9991023000" lon="-1.7256578431"><ele>147.22</ele><time>2011-11-09T10:57:28Z</time></trkpt><trkpt lat="51.9991110172" lon="-1.7256580945"><ele>147.70</ele><time>2011-11-09T10:57:39Z</time></trkpt><trkpt lat="51.9991090056" lon="-1.7256740201"><ele>147.22</ele><time>2011-11-09T10:57:47Z</time></trkpt><trkpt lat="51.9991090056" lon="-1.7256740201"><ele>147.22</ele><time>2011-11-09T10:58:01Z</time></trkpt><trkpt lat="51.9991090056" lon="-1.7256740201"><ele>147.22</ele><time>2011-11-09T10:58:16Z</time></trkpt><trkpt lat="51.9991085026" lon="-1.7256735172"><ele>147.70</ele><time>2011-11-09T10:58:29Z</time></trkpt><trkpt lat="51.9991085026" lon="-1.7256735172"><ele>147.22</ele><time>2011-11-09T10:58:42Z</time></trkpt><trkpt lat="51.9991085026" lon="-1.7256735172"><ele>147.70</ele><time>2011-11-09T10:58:53Z</time></trkpt><trkpt lat="51.9991111010" lon="-1.7256755289"><ele>147.22</ele><time>2011-11-09T10:59:07Z</time></trkpt><trkpt lat="51.9991111010" lon="-1.7256755289"><ele>147.22</ele><time>2011-11-09T10:59:19Z</time></trkpt><trkpt lat="51.9991111010" lon="-1.7256755289"><ele>147.22</ele><time>2011-11-09T10:59:33Z</time></trkpt><trkpt lat="51.9991178066" lon="-1.7256743554"><ele>147.22</ele><time>2011-11-09T10:59:48Z</time></trkpt><trkpt lat="51.9991178066" lon="-1.7256743554"><ele>147.22</ele><time>2011-11-09T11:00:00Z</time></trkpt><trkpt lat="51.9991178066" lon="-1.7256743554"><ele>146.74</ele><time>2011-11-09T11:00:15Z</time></trkpt><trkpt lat="51.9991185609" lon="-1.7256704997"><ele>147.22</ele><time>2011-11-09T11:00:30Z</time></trkpt><trkpt lat="51.9991185609" lon="-1.7256704997"><ele>147.22</ele><time>2011-11-09T11:00:47Z</time></trkpt><trkpt lat="51.9991224166" lon="-1.7256702483"><ele>146.74</ele><time>2011-11-09T11:01:04Z</time></trkpt><trkpt lat="51.9991224166" lon="-1.7256702483"><ele>147.22</ele><time>2011-11-09T11:01:17Z</time></trkpt><trkpt lat="51.9991224166" lon="-1.7256702483"><ele>147.22</ele><time>2011-11-09T11:01:29Z</time></trkpt><trkpt lat="51.9991224166" lon="-1.7256702483"><ele>147.22</ele><time>2011-11-09T11:01:42Z</time></trkpt><trkpt lat="51.9991235901" lon="-1.7256686557"><ele>146.74</ele><time>2011-11-09T11:01:58Z</time></trkpt><trkpt lat="51.9991235901" lon="-1.7256686557"><ele>147.22</ele><time>2011-11-09T11:02:11Z</time></trkpt><trkpt lat="51.9991269428" lon="-1.7256684881"><ele>147.22</ele><time>2011-11-09T11:02:25Z</time></trkpt><trkpt lat="51.9991269428" lon="-1.7256684881"><ele>147.22</ele><time>2011-11-09T11:02:41Z</time></trkpt><trkpt lat="51.9991269428" lon="-1.7256684881"><ele>146.74</ele><time>2011-11-09T11:02:55Z</time></trkpt><trkpt lat="51.9991279487" lon="-1.7256675661"><ele>147.22</ele><time>2011-11-09T11:03:09Z</time></trkpt><trkpt lat="51.9991279487" lon="-1.7256675661"><ele>147.22</ele><time>2011-11-09T11:03:24Z</time></trkpt><trkpt lat="51.9991279487" lon="-1.7256675661"><ele>146.74</ele><time>2011-11-09T11:03:41Z</time></trkpt><trkpt lat="51.9991308823" lon="-1.7256746907"><ele>146.74</ele><time>2011-11-09T11:03:55Z</time></trkpt><trkpt lat="51.9991308823" lon="-1.7256746907"><ele>147.22</ele><time>2011-11-09T11:04:12Z</time></trkpt><trkpt lat="51.9991312176" lon="-1.7256798875"><ele>147.22</ele><time>2011-11-09T11:04:30Z</time></trkpt><trkpt lat="51.9991312176" lon="-1.7256798875"><ele>147.22</ele><time>2011-11-09T11:04:51Z</time></trkpt><trkpt lat="51.9991332293" lon="-1.7256676499"><ele>146.74</ele><time>2011-11-09T11:05:07Z</time></trkpt><trkpt lat="51.9991504960" lon="-1.7256178614"><ele>146.74</ele><time>2011-11-09T11:05:14Z</time></trkpt><trkpt lat="51.9991823472" lon="-1.7255248223"><ele>146.74</ele><time>2011-11-09T11:05:23Z</time></trkpt><trkpt lat="51.9991933275" lon="-1.7255036999"><ele>146.26</ele><time>2011-11-09T11:05:30Z</time></trkpt><trkpt lat="51.9992056489" lon="-1.7254861817"><ele>146.26</ele><time>2011-11-09T11:05:40Z</time></trkpt><trkpt lat="51.9992846902" lon="-1.7253633868"><ele>146.74</ele><time>2011-11-09T11:05:48Z</time></trkpt><trkpt lat="51.9993431121" lon="-1.7252886202"><ele>146.26</ele><time>2011-11-09T11:05:55Z</time></trkpt><trkpt lat="51.9994176272" lon="-1.7251894623"><ele>146.26</ele><time>2011-11-09T11:06:03Z</time></trkpt><trkpt lat="51.9994994346" lon="-1.7251077387"><ele>146.74</ele><time>2011-11-09T11:06:12Z</time></trkpt><trkpt lat="51.9995812420" lon="-1.7250516638"><ele>146.26</ele><time>2011-11-09T11:06:20Z</time></trkpt><trkpt lat="51.9996659830" lon="-1.7249981035"><ele>146.26</ele><time>2011-11-09T11:06:29Z</time></trkpt><trkpt lat="51.9997596927" lon="-1.7248965986"><ele>146.74</ele><time>2011-11-09T11:06:37Z</time></trkpt><trkpt lat="51.9998184498" lon="-1.7248106841"><ele>146.74</ele><time>2011-11-09T11:06:47Z</time></trkpt><trkpt lat="51.9998582639" lon="-1.7247262783"><ele>146.26</ele><time>2011-11-09T11:06:55Z</time></trkpt><trkpt lat="51.9998840801" lon="-1.7246812675"><ele>146.74</ele><time>2011-11-09T11:07:04Z</time></trkpt><trkpt lat="51.9998840801" lon="-1.7246812675"><ele>146.26</ele><time>2011-11-09T11:07:10Z</time></trkpt><trkpt lat="51.9998840801" lon="-1.7246812675"><ele>146.26</ele><time>2011-11-09T11:07:22Z</time></trkpt><trkpt lat="51.9998840801" lon="-1.7246812675"><ele>145.78</ele><time>2011-11-09T11:07:37Z</time></trkpt><trkpt lat="51.9998834934" lon="-1.7246801779"><ele>145.30</ele><time>2011-11-09T11:07:47Z</time></trkpt><trkpt lat="51.9998834934" lon="-1.7246801779"><ele>145.30</ele><time>2011-11-09T11:08:01Z</time></trkpt><trkpt lat="51.9998834934" lon="-1.7246801779"><ele>145.30</ele><time>2011-11-09T11:08:18Z</time></trkpt><trkpt lat="51.9998839963" lon="-1.7246766575"><ele>145.78</ele><time>2011-11-09T11:08:38Z</time></trkpt><trkpt lat="51.9998839963" lon="-1.7246766575"><ele>145.30</ele><time>2011-11-09T11:08:58Z</time></trkpt><trkpt lat="51.9998855051" lon="-1.7246691138"><ele>145.78</ele><time>2011-11-09T11:09:07Z</time></trkpt><trkpt lat="51.9998890255" lon="-1.7246643361"><ele>146.26</ele><time>2011-11-09T11:09:21Z</time></trkpt><trkpt lat="51.9998876005" lon="-1.7246334907"><ele>145.78</ele><time>2011-11-09T11:09:30Z</time></trkpt><trkpt lat="51.9999046996" lon="-1.7245852947"><ele>145.30</ele><time>2011-11-09T11:09:34Z</time></trkpt><trkpt lat="51.9999144226" lon="-1.7245528568"><ele>145.78</ele><time>2011-11-09T11:09:36Z</time></trkpt><trkpt lat="51.9999748562" lon="-1.7244773358"><ele>146.26</ele><time>2011-11-09T11:09:43Z</time></trkpt><trkpt lat="52.0000809710" lon="-1.7244257871"><ele>146.26</ele><time>2011-11-09T11:09:56Z</time></trkpt><trkpt lat="52.0001508761" lon="-1.7244309001"><ele>146.74</ele><time>2011-11-09T11:10:05Z</time></trkpt><trkpt lat="52.0002172608" lon="-1.7244413774"><ele>147.22</ele><time>2011-11-09T11:10:14Z</time></trkpt><trkpt lat="52.0002750121" lon="-1.7244436406"><ele>147.22</ele><time>2011-11-09T11:10:22Z</time></trkpt><trkpt lat="52.0003374573" lon="-1.7244432215"><ele>147.70</ele><time>2011-11-09T11:10:30Z</time></trkpt><trkpt lat="52.0004011597" lon="-1.7244231887"><ele>148.18</ele><time>2011-11-09T11:10:38Z</time></trkpt><trkpt lat="52.0004746690" lon="-1.7243914213"><ele>148.18</ele><time>2011-11-09T11:10:48Z</time></trkpt><trkpt lat="52.0005435683" lon="-1.7243436445"><ele>148.66</ele><time>2011-11-09T11:10:58Z</time></trkpt><trkpt lat="52.0005861484" lon="-1.7243047524"><ele>148.66</ele><time>2011-11-09T11:11:08Z</time></trkpt><trkpt lat="52.0006663632" lon="-1.7242235318"><ele>150.10</ele><time>2011-11-09T11:11:18Z</time></trkpt><trkpt lat="52.0007067639" lon="-1.7241775151"><ele>149.62</ele><time>2011-11-09T11:11:23Z</time></trkpt><trkpt lat="52.0007837098" lon="-1.7241004854"><ele>150.10</ele><time>2011-11-09T11:11:32Z</time></trkpt><trkpt lat="52.0008483343" lon="-1.7240426503"><ele>150.10</ele><time>2011-11-09T11:11:39Z</time></trkpt><trkpt lat="52.0009008050" lon="-1.7239952087"><ele>150.58</ele><time>2011-11-09T11:11:46Z</time></trkpt><trkpt lat="52.0009667706" lon="-1.7239244655"><ele>150.58</ele><time>2011-11-09T11:11:56Z</time></trkpt><trkpt lat="52.0009837858" lon="-1.7239166703"><ele>151.06</ele><time>2011-11-09T11:11:58Z</time></trkpt><trkpt lat="52.0010722149" lon="-1.7238663789"><ele>151.06</ele><time>2011-11-09T11:12:08Z</time></trkpt><trkpt lat="52.0011358336" lon="-1.7237850744"><ele>151.06</ele><time>2011-11-09T11:12:17Z</time></trkpt><trkpt lat="52.0011411142" lon="-1.7237782013"><ele>151.06</ele><time>2011-11-09T11:12:18Z</time></trkpt><trkpt lat="52.0012131985" lon="-1.7237068713"><ele>150.58</ele><time>2011-11-09T11:12:27Z</time></trkpt><trkpt lat="52.0012789965" lon="-1.7236568313"><ele>150.58</ele><time>2011-11-09T11:12:34Z</time></trkpt><trkpt lat="52.0013486501" lon="-1.7236009240"><ele>150.58</ele><time>2011-11-09T11:12:42Z</time></trkpt><trkpt lat="52.0014335588" lon="-1.7235547397"><ele>150.58</ele><time>2011-11-09T11:12:53Z</time></trkpt><trkpt lat="52.0014791563" lon="-1.7235476151"><ele>150.58</ele><time>2011-11-09T11:13:03Z</time></trkpt><trkpt lat="52.0015747100" lon="-1.7235430051"><ele>150.58</ele><time>2011-11-09T11:13:13Z</time></trkpt><trkpt lat="52.0016063936" lon="-1.7235715874"><ele>149.62</ele><time>2011-11-09T11:13:22Z</time></trkpt><trkpt lat="52.0016696770" lon="-1.7236072943"><ele>150.10</ele><time>2011-11-09T11:13:32Z</time></trkpt><trkpt lat="52.0017331280" lon="-1.7236104794"><ele>151.06</ele><time>2011-11-09T11:13:41Z</time></trkpt><trkpt lat="52.0017853472" lon="-1.7235814780"><ele>151.06</ele><time>2011-11-09T11:13:49Z</time></trkpt><trkpt lat="52.0018689986" lon="-1.7235126626"><ele>151.54</ele><time>2011-11-09T11:13:58Z</time></trkpt><trkpt lat="52.0019551646" lon="-1.7234703340"><ele>152.51</ele><time>2011-11-09T11:14:07Z</time></trkpt><trkpt lat="52.0020207111" lon="-1.7233943101"><ele>152.03</ele><time>2011-11-09T11:14:16Z</time></trkpt><trkpt lat="52.0021105651" lon="-1.7233347148"><ele>152.51</ele><time>2011-11-09T11:14:26Z</time></trkpt><trkpt lat="52.0021739323" lon="-1.7232913803"><ele>152.03</ele><time>2011-11-09T11:14:35Z</time></trkpt><trkpt lat="52.0021944679" lon="-1.7232756224"><ele>152.51</ele><time>2011-11-09T11:14:44Z</time></trkpt><trkpt lat="52.0022555720" lon="-1.7232349701"><ele>152.99</ele><time>2011-11-09T11:14:54Z</time></trkpt><trkpt lat="52.0023856591" lon="-1.7231617123"><ele>152.99</ele><time>2011-11-09T11:15:03Z</time></trkpt><trkpt lat="52.0024680533" lon="-1.7230943218"><ele>152.99</ele><time>2011-11-09T11:15:11Z</time></trkpt><trkpt lat="52.0025440771" lon="-1.7230477184"><ele>152.99</ele><time>2011-11-09T11:15:19Z</time></trkpt><trkpt lat="52.0026140660" lon="-1.7230161186"><ele>152.51</ele><time>2011-11-09T11:15:27Z</time></trkpt><trkpt lat="52.0026782714" lon="-1.7229715269"><ele>152.99</ele><time>2011-11-09T11:15:38Z</time></trkpt><trkpt lat="52.0027837157" lon="-1.7229034659"><ele>152.51</ele><time>2011-11-09T11:15:46Z</time></trkpt><trkpt lat="52.0029142220" lon="-1.7228162102"><ele>152.03</ele><time>2011-11-09T11:15:56Z</time></trkpt><trkpt lat="52.0029768348" lon="-1.7227723729"><ele>152.51</ele><time>2011-11-09T11:16:05Z</time></trkpt><trkpt lat="52.0030510146" lon="-1.7227049824"><ele>151.06</ele><time>2011-11-09T11:16:14Z</time></trkpt><trkpt lat="52.0031360909" lon="-1.7226432078"><ele>152.03</ele><time>2011-11-09T11:16:23Z</time></trkpt><trkpt lat="52.0031650923" lon="-1.7226069141"><ele>152.03</ele><time>2011-11-09T11:16:31Z</time></trkpt><trkpt lat="52.0031779166" lon="-1.7226083390"><ele>152.03</ele><time>2011-11-09T11:16:37Z</time></trkpt><trkpt lat="52.0032008830" lon="-1.7226226721"><ele>152.03</ele><time>2011-11-09T11:16:46Z</time></trkpt><trkpt lat="52.0032272860" lon="-1.7226659227"><ele>152.03</ele><time>2011-11-09T11:16:54Z</time></trkpt><trkpt lat="52.0032748114" lon="-1.7226911522"><ele>152.51</ele><time>2011-11-09T11:17:02Z</time></trkpt><trkpt lat="52.0033344068" lon="-1.7227673437"><ele>152.99</ele><time>2011-11-09T11:17:10Z</time></trkpt><trkpt lat="52.0033582952" lon="-1.7228468880"><ele>152.99</ele><time>2011-11-09T11:17:17Z</time></trkpt><trkpt lat="52.0033933315" lon="-1.7229334731"><ele>152.99</ele><time>2011-11-09T11:17:24Z</time></trkpt><trkpt lat="52.0034168009" lon="-1.7229852732"><ele>153.47</ele><time>2011-11-09T11:17:29Z</time></trkpt><trkpt lat="52.0034665894" lon="-1.7231616285"><ele>153.47</ele><time>2011-11-09T11:17:37Z</time></trkpt><trkpt lat="52.0035129413" lon="-1.7232466210"><ele>154.43</ele><time>2011-11-09T11:17:45Z</time></trkpt><trkpt lat="52.0035409369" lon="-1.7233239859"><ele>154.91</ele><time>2011-11-09T11:17:52Z</time></trkpt><trkpt lat="52.0035492349" lon="-1.7234004289"><ele>154.91</ele><time>2011-11-09T11:17:59Z</time></trkpt><trkpt lat="52.0035609696" lon="-1.7235175241"><ele>155.87</ele><time>2011-11-09T11:18:07Z</time></trkpt><trkpt lat="52.0035734586" lon="-1.7236151733"><ele>155.87</ele><time>2011-11-09T11:18:14Z</time></trkpt><trkpt lat="52.0035806671" lon="-1.7236508802"><ele>156.35</ele><time>2011-11-09T11:18:25Z</time></trkpt><trkpt lat="52.0035903901" lon="-1.7237619404"><ele>156.83</ele><time>2011-11-09T11:18:35Z</time></trkpt><trkpt lat="52.0036124345" lon="-1.7238883395"><ele>156.83</ele><time>2011-11-09T11:18:45Z</time></trkpt><trkpt lat="52.0036124345" lon="-1.7238883395"><ele>157.31</ele><time>2011-11-09T11:18:57Z</time></trkpt><trkpt lat="52.0036124345" lon="-1.7238883395"><ele>156.83</ele><time>2011-11-09T11:19:08Z</time></trkpt><trkpt lat="52.0036124345" lon="-1.7238883395"><ele>157.31</ele><time>2011-11-09T11:19:22Z</time></trkpt><trkpt lat="52.0036133565" lon="-1.7240201030"><ele>157.79</ele><time>2011-11-09T11:19:30Z</time></trkpt><trkpt lat="52.0035706926" lon="-1.7242212687"><ele>158.27</ele><time>2011-11-09T11:19:39Z</time></trkpt><trkpt lat="52.0035448764" lon="-1.7243454047"><ele>159.24</ele><time>2011-11-09T11:19:47Z</time></trkpt><trkpt lat="52.0035321359" lon="-1.7244355101"><ele>159.72</ele><time>2011-11-09T11:19:53Z</time></trkpt><trkpt lat="52.0035210717" lon="-1.7245747335"><ele>160.68</ele><time>2011-11-09T11:20:02Z</time></trkpt><trkpt lat="52.0035164617" lon="-1.7246989533"><ele>161.16</ele><time>2011-11-09T11:20:11Z</time></trkpt><trkpt lat="52.0035047270" lon="-1.7248360813"><ele>162.12</ele><time>2011-11-09T11:20:22Z</time></trkpt><trkpt lat="52.0034903102" lon="-1.7249749694"><ele>162.60</ele><time>2011-11-09T11:20:31Z</time></trkpt><trkpt lat="52.0034724567" lon="-1.7251728661"><ele>163.08</ele><time>2011-11-09T11:20:41Z</time></trkpt><trkpt lat="52.0034530945" lon="-1.7253627162"><ele>163.56</ele><time>2011-11-09T11:20:51Z</time></trkpt><trkpt lat="52.0034716185" lon="-1.7254508939"><ele>164.04</ele><time>2011-11-09T11:21:00Z</time></trkpt><trkpt lat="52.0034326427" lon="-1.7255935539"><ele>164.52</ele><time>2011-11-09T11:21:10Z</time></trkpt><trkpt lat="52.0034326427" lon="-1.7255935539"><ele>165.00</ele><time>2011-11-09T11:21:24Z</time></trkpt><trkpt lat="52.0034326427" lon="-1.7255935539"><ele>165.00</ele><time>2011-11-09T11:21:33Z</time></trkpt><trkpt lat="52.0034282003" lon="-1.7256112397"><ele>165.00</ele><time>2011-11-09T11:21:50Z</time></trkpt><trkpt lat="52.0034282003" lon="-1.7256112397"><ele>165.00</ele><time>2011-11-09T11:22:04Z</time></trkpt><trkpt lat="52.0034278650" lon="-1.7256212141"><ele>165.48</ele><time>2011-11-09T11:22:13Z</time></trkpt><trkpt lat="52.0034097601" lon="-1.7258347012"><ele>166.45</ele><time>2011-11-09T11:22:23Z</time></trkpt><trkpt lat="52.0033806749" lon="-1.7259795405"><ele>166.93</ele><time>2011-11-09T11:22:32Z</time></trkpt><trkpt lat="52.0033466443" lon="-1.7262508627"><ele>167.41</ele><time>2011-11-09T11:22:41Z</time></trkpt><trkpt lat="52.0033031423" lon="-1.7265002243"><ele>168.37</ele><time>2011-11-09T11:22:51Z</time></trkpt><trkpt lat="52.0032899827" lon="-1.7266493384"><ele>169.33</ele><time>2011-11-09T11:22:59Z</time></trkpt><trkpt lat="52.0032723807" lon="-1.7267747317"><ele>169.81</ele><time>2011-11-09T11:23:07Z</time></trkpt><trkpt lat="52.0032493304" lon="-1.7269028910"><ele>171.25</ele><time>2011-11-09T11:23:17Z</time></trkpt><trkpt lat="52.0032353327" lon="-1.7270133644"><ele>172.21</ele><time>2011-11-09T11:23:25Z</time></trkpt><trkpt lat="52.0032150485" lon="-1.7271904740"><ele>172.69</ele><time>2011-11-09T11:23:33Z</time></trkpt><trkpt lat="52.0031900704" lon="-1.7273561843"><ele>173.66</ele><time>2011-11-09T11:23:41Z</time></trkpt><trkpt lat="52.0031624101" lon="-1.7275201343"><ele>174.62</ele><time>2011-11-09T11:23:50Z</time></trkpt><trkpt lat="52.0031313971" lon="-1.7276849225"><ele>175.10</ele><time>2011-11-09T11:23:57Z</time></trkpt><trkpt lat="52.0031158905" lon="-1.7278096452"><ele>175.58</ele><time>2011-11-09T11:24:05Z</time></trkpt><trkpt lat="52.0031390246" lon="-1.7279441748"><ele>176.06</ele><time>2011-11-09T11:24:12Z</time></trkpt><trkpt lat="52.0031040721" lon="-1.7281414848"><ele>176.54</ele><time>2011-11-09T11:24:20Z</time></trkpt><trkpt lat="52.0030885655" lon="-1.7282814626"><ele>177.02</ele><time>2011-11-09T11:24:28Z</time></trkpt><trkpt lat="52.0030718856" lon="-1.7284909263"><ele>176.54</ele><time>2011-11-09T11:24:39Z</time></trkpt><trkpt lat="52.0030441415" lon="-1.7286231928"><ele>177.98</ele><time>2011-11-09T11:24:46Z</time></trkpt><trkpt lat="52.0030562952" lon="-1.7286681198"><ele>177.98</ele><time>2011-11-09T11:24:52Z</time></trkpt><trkpt lat="52.0030665211" lon="-1.7287207581"><ele>178.46</ele><time>2011-11-09T11:24:55Z</time></trkpt><trkpt lat="52.0030367654" lon="-1.7288728058"><ele>177.98</ele><time>2011-11-09T11:25:03Z</time></trkpt><trkpt lat="52.0030049980" lon="-1.7290243506"><ele>178.94</ele><time>2011-11-09T11:25:10Z</time></trkpt><trkpt lat="52.0029388648" lon="-1.7292004544"><ele>178.46</ele><time>2011-11-09T11:25:17Z</time></trkpt><trkpt lat="52.0029224362" lon="-1.7292720359"><ele>178.94</ele><time>2011-11-09T11:25:24Z</time></trkpt><trkpt lat="52.0029165689" lon="-1.7293172143"><ele>177.98</ele><time>2011-11-09T11:25:30Z</time></trkpt><trkpt lat="52.0028965361" lon="-1.7294372432"><ele>178.46</ele><time>2011-11-09T11:25:38Z</time></trkpt><trkpt lat="52.0028910879" lon="-1.7295193020"><ele>178.46</ele><time>2011-11-09T11:25:45Z</time></trkpt><trkpt lat="52.0028864779" lon="-1.7295299470"><ele>178.46</ele><time>2011-11-09T11:25:53Z</time></trkpt><trkpt lat="52.0028811973" lon="-1.7295537516"><ele>178.94</ele><time>2011-11-09T11:26:08Z</time></trkpt><trkpt lat="52.0028811973" lon="-1.7295537516"><ele>178.46</ele><time>2011-11-09T11:26:18Z</time></trkpt><trkpt lat="52.0029011462" lon="-1.7295462079"><ele>178.94</ele><time>2011-11-09T11:26:27Z</time></trkpt><trkpt lat="52.0029071812" lon="-1.7295213137"><ele>178.46</ele><time>2011-11-09T11:26:34Z</time></trkpt><trkpt lat="52.0029096957" lon="-1.7295246664"><ele>178.94</ele><time>2011-11-09T11:26:44Z</time></trkpt><trkpt lat="52.0029024873" lon="-1.7295270972"><ele>178.94</ele><time>2011-11-09T11:26:55Z</time></trkpt><trkpt lat="52.0028972905" lon="-1.7295255885"><ele>178.94</ele><time>2011-11-09T11:27:02Z</time></trkpt><trkpt lat="52.0028967876" lon="-1.7295008618"><ele>178.94</ele><time>2011-11-09T11:27:10Z</time></trkpt><trkpt lat="52.0028967876" lon="-1.7295008618"><ele>178.46</ele><time>2011-11-09T11:27:21Z</time></trkpt><trkpt lat="52.0028941054" lon="-1.7294530012"><ele>178.46</ele><time>2011-11-09T11:27:28Z</time></trkpt><trkpt lat="52.0028976258" lon="-1.7294449545"><ele>178.94</ele><time>2011-11-09T11:27:42Z</time></trkpt><trkpt lat="52.0028863940" lon="-1.7293506581"><ele>178.94</ele><time>2011-11-09T11:27:51Z</time></trkpt><trkpt lat="52.0028921776" lon="-1.7292065732"><ele>179.42</ele><time>2011-11-09T11:28:02Z</time></trkpt><trkpt lat="52.0028910879" lon="-1.7291964311"><ele>178.46</ele><time>2011-11-09T11:28:12Z</time></trkpt><trkpt lat="52.0029069297" lon="-1.7291073315"><ele>178.94</ele><time>2011-11-09T11:28:19Z</time></trkpt><trkpt lat="52.0029225200" lon="-1.7290041503"><ele>178.94</ele><time>2011-11-09T11:28:27Z</time></trkpt><trkpt lat="52.0029387809" lon="-1.7289339099"><ele>180.38</ele><time>2011-11-09T11:28:33Z</time></trkpt><trkpt lat="52.0029636752" lon="-1.7288267892"><ele>179.42</ele><time>2011-11-09T11:28:42Z</time></trkpt><trkpt lat="52.0029794332" lon="-1.7287133820"><ele>179.42</ele><time>2011-11-09T11:28:51Z</time></trkpt><trkpt lat="52.0029971190" lon="-1.7285319138"><ele>178.46</ele><time>2011-11-09T11:29:04Z</time></trkpt><trkpt lat="52.0030106138" lon="-1.7284540460"><ele>178.46</ele><time>2011-11-09T11:29:13Z</time></trkpt><trkpt lat="52.0030261204" lon="-1.7283599172"><ele>178.94</ele><time>2011-11-09T11:29:23Z</time></trkpt><trkpt lat="52.0030614082" lon="-1.7281960510"><ele>177.50</ele><time>2011-11-09T11:29:35Z</time></trkpt><trkpt lat="52.0030811056" lon="-1.7280462664"><ele>177.50</ele><time>2011-11-09T11:29:45Z</time></trkpt><trkpt lat="52.0030986238" lon="-1.7279192805"><ele>177.02</ele><time>2011-11-09T11:29:53Z</time></trkpt><trkpt lat="52.0031005517" lon="-1.7278340366"><ele>176.06</ele><time>2011-11-09T11:30:00Z</time></trkpt><trkpt lat="52.0031091012" lon="-1.7276952323"><ele>175.58</ele><time>2011-11-09T11:30:09Z</time></trkpt><trkpt lat="52.0031184889" lon="-1.7275581043"><ele>175.58</ele><time>2011-11-09T11:30:18Z</time></trkpt><trkpt lat="52.0031431317" lon="-1.7274234071"><ele>174.14</ele><time>2011-11-09T11:30:27Z</time></trkpt><trkpt lat="52.0031661820" lon="-1.7273247521"><ele>171.73</ele><time>2011-11-09T11:30:35Z</time></trkpt><trkpt lat="52.0031785034" lon="-1.7271802481"><ele>172.69</ele><time>2011-11-09T11:30:45Z</time></trkpt><trkpt lat="52.0031785034" lon="-1.7271802481"><ele>172.69</ele><time>2011-11-09T11:30:55Z</time></trkpt><trkpt lat="52.0031785034" lon="-1.7271802481"><ele>172.21</ele><time>2011-11-09T11:31:08Z</time></trkpt><trkpt lat="52.0031785034" lon="-1.7271802481"><ele>177.02</ele><time>2011-11-09T11:31:12Z</time></trkpt><trkpt lat="52.0031785034" lon="-1.7271802481"><ele>172.69</ele><time>2011-11-09T11:31:13Z</time></trkpt><trkpt lat="52.0031776652" lon="-1.7271747161"><ele>171.73</ele><time>2011-11-09T11:31:27Z</time></trkpt><trkpt lat="52.0031776652" lon="-1.7271747161"><ele>171.73</ele><time>2011-11-09T11:31:43Z</time></trkpt><trkpt lat="52.0031801797" lon="-1.7271094210"><ele>172.21</ele><time>2011-11-09T11:31:55Z</time></trkpt><trkpt lat="52.0032016374" lon="-1.7268666811"><ele>171.25</ele><time>2011-11-09T11:32:04Z</time></trkpt><trkpt lat="52.0032249391" lon="-1.7266561277"><ele>170.29</ele><time>2011-11-09T11:32:13Z</time></trkpt><trkpt lat="52.0032601431" lon="-1.7264071014"><ele>169.33</ele><time>2011-11-09T11:32:22Z</time></trkpt><trkpt lat="52.0032866299" lon="-1.7262127250"><ele>168.85</ele><time>2011-11-09T11:32:32Z</time></trkpt><trkpt lat="52.0032866299" lon="-1.7261740007"><ele>166.93</ele><time>2011-11-09T11:32:35Z</time></trkpt><trkpt lat="52.0032919105" lon="-1.7261016648"><ele>166.93</ele><time>2011-11-09T11:32:40Z</time></trkpt><trkpt lat="52.0033304673" lon="-1.7259300034"><ele>166.45</ele><time>2011-11-09T11:32:49Z</time></trkpt><trkpt lat="52.0033674315" lon="-1.7257353757"><ele>165.48</ele><time>2011-11-09T11:32:56Z</time></trkpt><trkpt lat="52.0033981930" lon="-1.7255584337"><ele>164.52</ele><time>2011-11-09T11:33:05Z</time></trkpt><trkpt lat="52.0034010429" lon="-1.7254159413"><ele>165.00</ele><time>2011-11-09T11:33:13Z</time></trkpt><trkpt lat="52.0033992827" lon="-1.7253857665"><ele>163.56</ele><time>2011-11-09T11:33:27Z</time></trkpt><trkpt lat="52.0034188963" lon="-1.7252980918"><ele>164.04</ele><time>2011-11-09T11:33:32Z</time></trkpt><trkpt lat="52.0034323074" lon="-1.7250746302"><ele>163.56</ele><time>2011-11-09T11:33:40Z</time></trkpt><trkpt lat="52.0034467243" lon="-1.7249447946"><ele>162.12</ele><time>2011-11-09T11:33:49Z</time></trkpt><trkpt lat="52.0034843590" lon="-1.7248202395"><ele>161.16</ele><time>2011-11-09T11:33:57Z</time></trkpt><trkpt lat="52.0035111811" lon="-1.7246151343"><ele>160.68</ele><time>2011-11-09T11:34:05Z</time></trkpt><trkpt lat="52.0035179704" lon="-1.7244385276"><ele>160.68</ele><time>2011-11-09T11:34:13Z</time></trkpt><trkpt lat="52.0035444573" lon="-1.7242546286"><ele>159.72</ele><time>2011-11-09T11:34:21Z</time></trkpt><trkpt lat="52.0035460498" lon="-1.7239043489"><ele>158.75</ele><time>2011-11-09T11:34:31Z</time></trkpt><trkpt lat="52.0035582874" lon="-1.7236813903"><ele>158.27</ele><time>2011-11-09T11:34:39Z</time></trkpt><trkpt lat="52.0035794098" lon="-1.7235330306"><ele>157.79</ele><time>2011-11-09T11:34:47Z</time></trkpt><trkpt lat="52.0035999455" lon="-1.7233881913"><ele>157.31</ele><time>2011-11-09T11:34:56Z</time></trkpt><trkpt lat="52.0036417712" lon="-1.7231990118"><ele>156.35</ele><time>2011-11-09T11:35:05Z</time></trkpt><trkpt lat="52.0036574453" lon="-1.7230384145"><ele>155.87</ele><time>2011-11-09T11:35:14Z</time></trkpt><trkpt lat="52.0036853570" lon="-1.7228046432"><ele>155.87</ele><time>2011-11-09T11:35:23Z</time></trkpt><trkpt lat="52.0036974270" lon="-1.7226634081"><ele>154.91</ele><time>2011-11-09T11:35:31Z</time></trkpt><trkpt lat="52.0037070662" lon="-1.7225684412"><ele>155.39</ele><time>2011-11-09T11:35:42Z</time></trkpt><trkpt lat="52.0037085749" lon="-1.7225463130"><ele>155.39</ele><time>2011-11-09T11:35:43Z</time></trkpt><trkpt lat="52.0037282724" lon="-1.7223804351"><ele>154.43</ele><time>2011-11-09T11:35:52Z</time></trkpt><trkpt lat="52.0037462935" lon="-1.7222360149"><ele>153.95</ele><time>2011-11-09T11:36:00Z</time></trkpt><trkpt lat="52.0037597045" lon="-1.7220899183"><ele>153.47</ele><time>2011-11-09T11:36:09Z</time></trkpt><trkpt lat="52.0037634764" lon="-1.7220356036"><ele>153.47</ele><time>2011-11-09T11:36:17Z</time></trkpt><trkpt lat="52.0037836768" lon="-1.7219103780"><ele>152.99</ele><time>2011-11-09T11:36:26Z</time></trkpt><trkpt lat="52.0037993509" lon="-1.7216727510"><ele>152.51</ele><time>2011-11-09T11:36:35Z</time></trkpt><trkpt lat="52.0038019493" lon="-1.7216319311"><ele>152.51</ele><time>2011-11-09T11:36:38Z</time></trkpt><trkpt lat="52.0038219821" lon="-1.7214496247"><ele>152.03</ele><time>2011-11-09T11:36:48Z</time></trkpt><trkpt lat="52.0038305316" lon="-1.7214214616"><ele>152.03</ele><time>2011-11-09T11:36:56Z</time></trkpt><trkpt lat="52.0038436912" lon="-1.7212610319"><ele>151.06</ele><time>2011-11-09T11:37:05Z</time></trkpt><trkpt lat="52.0038586110" lon="-1.7211843375"><ele>151.54</ele><time>2011-11-09T11:37:10Z</time></trkpt><trkpt lat="52.0038743690" lon="-1.7210254166"><ele>151.06</ele><time>2011-11-09T11:37:16Z</time></trkpt><trkpt lat="52.0038852654" lon="-1.7208530009"><ele>150.58</ele><time>2011-11-09T11:37:25Z</time></trkpt><trkpt lat="52.0039052144" lon="-1.7206784897"><ele>149.62</ele><time>2011-11-09T11:37:35Z</time></trkpt><trkpt lat="52.0039244089" lon="-1.7205035593"><ele>149.62</ele><time>2011-11-09T11:37:45Z</time></trkpt><trkpt lat="52.0039384067" lon="-1.7204018869"><ele>149.62</ele><time>2011-11-09T11:37:52Z</time></trkpt><trkpt lat="52.0039529912" lon="-1.7202203348"><ele>149.14</ele><time>2011-11-09T11:38:00Z</time></trkpt><trkpt lat="52.0039667375" lon="-1.7200578097"><ele>149.14</ele><time>2011-11-09T11:38:07Z</time></trkpt><trkpt lat="52.0039818250" lon="-1.7198797781"><ele>148.66</ele><time>2011-11-09T11:38:16Z</time></trkpt><trkpt lat="52.0040056296" lon="-1.7196935322"><ele>147.70</ele><time>2011-11-09T11:38:26Z</time></trkpt><trkpt lat="52.0040152688" lon="-1.7196339369"><ele>148.18</ele><time>2011-11-09T11:38:30Z</time></trkpt><trkpt lat="52.0040325355" lon="-1.7194062844"><ele>147.70</ele><time>2011-11-09T11:38:40Z</time></trkpt><trkpt lat="52.0040577650" lon="-1.7192148417"><ele>147.22</ele><time>2011-11-09T11:38:50Z</time></trkpt><trkpt lat="52.0040829945" lon="-1.7190858442"><ele>146.74</ele><time>2011-11-09T11:38:59Z</time></trkpt><trkpt lat="52.0040974114" lon="-1.7189278454"><ele>146.26</ele><time>2011-11-09T11:39:07Z</time></trkpt><trkpt lat="52.0041187853" lon="-1.7187486403"><ele>146.26</ele><time>2011-11-09T11:39:17Z</time></trkpt><trkpt lat="52.0041370578" lon="-1.7185562756"><ele>145.30</ele><time>2011-11-09T11:39:27Z</time></trkpt><trkpt lat="52.0041515585" lon="-1.7184074968"><ele>145.30</ele><time>2011-11-09T11:39:36Z</time></trkpt><trkpt lat="52.0041798893" lon="-1.7182448879"><ele>144.82</ele><time>2011-11-09T11:39:46Z</time></trkpt><trkpt lat="52.0041979942" lon="-1.7180934269"><ele>145.30</ele><time>2011-11-09T11:39:53Z</time></trkpt><trkpt lat="52.0042085554" lon="-1.7180243600"><ele>144.82</ele><time>2011-11-09T11:39:57Z</time></trkpt><trkpt lat="52.0042221341" lon="-1.7178277206"><ele>144.34</ele><time>2011-11-09T11:40:07Z</time></trkpt><trkpt lat="52.0042404905" lon="-1.7176625133"><ele>144.34</ele><time>2011-11-09T11:40:16Z</time></trkpt><trkpt lat="52.0042580925" lon="-1.7175184283"><ele>143.85</ele><time>2011-11-09T11:40:24Z</time></trkpt><trkpt lat="52.0042813942" lon="-1.7173554841"><ele>143.37</ele><time>2011-11-09T11:40:34Z</time></trkpt><trkpt lat="52.0042993315" lon="-1.7171865050"><ele>143.37</ele><time>2011-11-09T11:40:44Z</time></trkpt><trkpt lat="52.0043150056" lon="-1.7170039471"><ele>142.89</ele><time>2011-11-09T11:40:56Z</time></trkpt><trkpt lat="52.0043192804" lon="-1.7168188747"><ele>142.89</ele><time>2011-11-09T11:41:05Z</time></trkpt><trkpt lat="52.0043393131" lon="-1.7166797351"><ele>142.89</ele><time>2011-11-09T11:41:15Z</time></trkpt><trkpt lat="52.0043393970" lon="-1.7166511528"><ele>142.89</ele><time>2011-11-09T11:41:17Z</time></trkpt><trkpt lat="52.0043505449" lon="-1.7164944112"><ele>142.41</ele><time>2011-11-09T11:41:24Z</time></trkpt><trkpt lat="52.0043701585" lon="-1.7163177207"><ele>142.41</ele><time>2011-11-09T11:41:33Z</time></trkpt><trkpt lat="52.0043798815" lon="-1.7162368353"><ele>142.41</ele><time>2011-11-09T11:41:42Z</time></trkpt><trkpt lat="52.0044062007" lon="-1.7161065806"><ele>142.41</ele><time>2011-11-09T11:41:50Z</time></trkpt><trkpt lat="52.0044112299" lon="-1.7159273755"><ele>141.93</ele><time>2011-11-09T11:41:58Z</time></trkpt><trkpt lat="52.0044212881" lon="-1.7157650180"><ele>141.45</ele><time>2011-11-09T11:42:07Z</time></trkpt><trkpt lat="52.0044293348" lon="-1.7156306561"><ele>141.45</ele><time>2011-11-09T11:42:15Z</time></trkpt><trkpt lat="52.0044433326" lon="-1.7155121360"><ele>141.45</ele><time>2011-11-09T11:42:23Z</time></trkpt><trkpt lat="52.0044564083" lon="-1.7153594177"><ele>140.97</ele><time>2011-11-09T11:42:31Z</time></trkpt><trkpt lat="52.0044615213" lon="-1.7152331024"><ele>140.97</ele><time>2011-11-09T11:42:37Z</time></trkpt><trkpt lat="52.0044704061" lon="-1.7150981538"><ele>141.45</ele><time>2011-11-09T11:42:45Z</time></trkpt><trkpt lat="52.0044729207" lon="-1.7150107305"><ele>140.97</ele><time>2011-11-09T11:42:50Z</time></trkpt><trkpt lat="52.0044844039" lon="-1.7148537375"><ele>140.97</ele><time>2011-11-09T11:42:59Z</time></trkpt><trkpt lat="52.0044843201" lon="-1.7148211319"><ele>141.45</ele><time>2011-11-09T11:43:01Z</time></trkpt><trkpt lat="52.0044906903" lon="-1.7146804836"><ele>140.97</ele><time>2011-11-09T11:43:09Z</time></trkpt><trkpt lat="52.0044930372" lon="-1.7145032063"><ele>140.97</ele><time>2011-11-09T11:43:19Z</time></trkpt><trkpt lat="52.0044932887" lon="-1.7143343110"><ele>140.97</ele><time>2011-11-09T11:43:28Z</time></trkpt><trkpt lat="52.0044714957" lon="-1.7142194789"><ele>140.97</ele><time>2011-11-09T11:43:37Z</time></trkpt><trkpt lat="52.0044718310" lon="-1.7141677625"><ele>140.97</ele><time>2011-11-09T11:43:46Z</time></trkpt><trkpt lat="52.0044854097" lon="-1.7141081672"><ele>140.97</ele><time>2011-11-09T11:43:52Z</time></trkpt><trkpt lat="52.0045066159" lon="-1.7139800079"><ele>140.97</ele><time>2011-11-09T11:44:01Z</time></trkpt><trkpt lat="52.0045042690" lon="-1.7138722166"><ele>140.49</ele><time>2011-11-09T11:44:08Z</time></trkpt><trkpt lat="52.0045058616" lon="-1.7137267068"><ele>140.49</ele><time>2011-11-09T11:44:17Z</time></trkpt><trkpt lat="52.0045086276" lon="-1.7136232741"><ele>140.97</ele><time>2011-11-09T11:44:23Z</time></trkpt><trkpt lat="52.0045132376" lon="-1.7134648561"><ele>140.97</ele><time>2011-11-09T11:44:31Z</time></trkpt><trkpt lat="52.0045134053" lon="-1.7134114634"><ele>140.49</ele><time>2011-11-09T11:44:34Z</time></trkpt><trkpt lat="52.0045157522" lon="-1.7133414745"><ele>141.45</ele><time>2011-11-09T11:44:38Z</time></trkpt><trkpt lat="52.0045196917" lon="-1.7131630238"><ele>141.45</ele><time>2011-11-09T11:44:48Z</time></trkpt><trkpt lat="52.0045239665" lon="-1.7130129039"><ele>141.93</ele><time>2011-11-09T11:44:56Z</time></trkpt><trkpt lat="52.0045274030" lon="-1.7128717527"><ele>141.45</ele><time>2011-11-09T11:45:05Z</time></trkpt><trkpt lat="52.0045311749" lon="-1.7128394824"><ele>140.97</ele><time>2011-11-09T11:45:18Z</time></trkpt><trkpt lat="52.0045315940" lon="-1.7128247302"><ele>141.45</ele><time>2011-11-09T11:45:19Z</time></trkpt><trkpt lat="52.0045391377" lon="-1.7126867641"><ele>141.45</ele><time>2011-11-09T11:45:27Z</time></trkpt><trkpt lat="52.0045414008" lon="-1.7125037033"><ele>140.97</ele><time>2011-11-09T11:45:36Z</time></trkpt><trkpt lat="52.0045470167" lon="-1.7123132665"><ele>140.97</ele><time>2011-11-09T11:45:46Z</time></trkpt><trkpt lat="52.0045455080" lon="-1.7121514119"><ele>140.97</ele><time>2011-11-09T11:45:54Z</time></trkpt><trkpt lat="52.0045501180" lon="-1.7119803373"><ele>140.49</ele><time>2011-11-09T11:46:03Z</time></trkpt><trkpt lat="52.0045621879" lon="-1.7118018866"><ele>140.49</ele><time>2011-11-09T11:46:13Z</time></trkpt><trkpt lat="52.0045665465" lon="-1.7116650101"><ele>140.49</ele><time>2011-11-09T11:46:20Z</time></trkpt><trkpt lat="52.0045678876" lon="-1.7115032393"><ele>140.49</ele><time>2011-11-09T11:46:28Z</time></trkpt><trkpt lat="52.0045667980" lon="-1.7113277223"><ele>140.01</ele><time>2011-11-09T11:46:37Z</time></trkpt><trkpt lat="52.0045638643" lon="-1.7111691367"><ele>140.01</ele><time>2011-11-09T11:46:45Z</time></trkpt><trkpt lat="52.0045596734" lon="-1.7111364473"><ele>140.01</ele><time>2011-11-09T11:46:49Z</time></trkpt><trkpt lat="52.0045572426" lon="-1.7110553104"><ele>140.01</ele><time>2011-11-09T11:46:53Z</time></trkpt><trkpt lat="52.0045481902" lon="-1.7108543124"><ele>140.01</ele><time>2011-11-09T11:47:02Z</time></trkpt><trkpt lat="52.0045394730" lon="-1.7106567509"><ele>139.05</ele><time>2011-11-09T11:47:11Z</time></trkpt><trkpt lat="52.0045294985" lon="-1.7104870174"><ele>139.05</ele><time>2011-11-09T11:47:20Z</time></trkpt><trkpt lat="52.0045234635" lon="-1.7103322037"><ele>138.57</ele><time>2011-11-09T11:47:29Z</time></trkpt><trkpt lat="52.0045247208" lon="-1.7102550901"><ele>138.57</ele><time>2011-11-09T11:47:34Z</time></trkpt><trkpt lat="52.0045196079" lon="-1.7100694310"><ele>139.05</ele><time>2011-11-09T11:47:43Z</time></trkpt><trkpt lat="52.0045149140" lon="-1.7099289503"><ele>138.57</ele><time>2011-11-09T11:47:50Z</time></trkpt><trkpt lat="52.0045084599" lon="-1.7097700294"><ele>138.57</ele><time>2011-11-09T11:47:59Z</time></trkpt><trkpt lat="52.0045083761" lon="-1.7096281238"><ele>138.09</ele><time>2011-11-09T11:48:07Z</time></trkpt><trkpt lat="52.0045037661" lon="-1.7095272895"><ele>138.09</ele><time>2011-11-09T11:48:13Z</time></trkpt><trkpt lat="52.0044941269" lon="-1.7093618307"><ele>137.13</ele><time>2011-11-09T11:48:22Z</time></trkpt><trkpt lat="52.0044870023" lon="-1.7091714777"><ele>136.64</ele><time>2011-11-09T11:48:32Z</time></trkpt><trkpt lat="52.0044853259" lon="-1.7090054322"><ele>137.61</ele><time>2011-11-09T11:48:41Z</time></trkpt><trkpt lat="52.0044800453" lon="-1.7088598385"><ele>136.64</ele><time>2011-11-09T11:48:49Z</time></trkpt><trkpt lat="52.0044760220" lon="-1.7087011691"><ele>136.64</ele><time>2011-11-09T11:48:58Z</time></trkpt><trkpt lat="52.0044682268" lon="-1.7085760273"><ele>136.64</ele><time>2011-11-09T11:49:05Z</time></trkpt><trkpt lat="52.0044587553" lon="-1.7084478680"><ele>136.16</ele><time>2011-11-09T11:49:12Z</time></trkpt><trkpt lat="52.0044585038" lon="-1.7083010171"><ele>136.16</ele><time>2011-11-09T11:49:21Z</time></trkpt><trkpt lat="52.0044568274" lon="-1.7082831636"><ele>136.16</ele><time>2011-11-09T11:49:22Z</time></trkpt><trkpt lat="52.0044548158" lon="-1.7081454489"><ele>136.16</ele><time>2011-11-09T11:49:30Z</time></trkpt><trkpt lat="52.0044471044" lon="-1.7079897132"><ele>136.16</ele><time>2011-11-09T11:49:38Z</time></trkpt><trkpt lat="52.0044431649" lon="-1.7078101728"><ele>135.68</ele><time>2011-11-09T11:49:48Z</time></trkpt><trkpt lat="52.0044440031" lon="-1.7077090032"><ele>135.68</ele><time>2011-11-09T11:49:54Z</time></trkpt><trkpt lat="52.0044467691" lon="-1.7076364160"><ele>135.20</ele><time>2011-11-09T11:49:59Z</time></trkpt><trkpt lat="52.0044484455" lon="-1.7075904831"><ele>135.68</ele><time>2011-11-09T11:50:01Z</time></trkpt><trkpt lat="52.0044450928" lon="-1.7074854579"><ele>136.16</ele><time>2011-11-09T11:50:07Z</time></trkpt><trkpt lat="52.0044435840" lon="-1.7072904948"><ele>135.68</ele><time>2011-11-09T11:50:18Z</time></trkpt><trkpt lat="52.0044501219" lon="-1.7070997227"><ele>135.68</ele><time>2011-11-09T11:50:29Z</time></trkpt><trkpt lat="52.0044433326" lon="-1.7069713119"><ele>135.20</ele><time>2011-11-09T11:50:37Z</time></trkpt><trkpt lat="52.0044450928" lon="-1.7068045121"><ele>135.20</ele><time>2011-11-09T11:50:45Z</time></trkpt><trkpt lat="52.0044513792" lon="-1.7067127302"><ele>135.20</ele><time>2011-11-09T11:50:52Z</time></trkpt><trkpt lat="52.0044508763" lon="-1.7065419070"><ele>134.72</ele><time>2011-11-09T11:51:01Z</time></trkpt><trkpt lat="52.0044521336" lon="-1.7065214552"><ele>134.72</ele><time>2011-11-09T11:51:02Z</time></trkpt><trkpt lat="52.0044521336" lon="-1.7064373009"><ele>134.72</ele><time>2011-11-09T11:51:06Z</time></trkpt><trkpt lat="52.0044523012" lon="-1.7063762806"><ele>134.72</ele><time>2011-11-09T11:51:10Z</time></trkpt><trkpt lat="52.0044545643" lon="-1.7062490433"><ele>134.72</ele><time>2011-11-09T11:51:17Z</time></trkpt><trkpt lat="52.0044579171" lon="-1.7061020248"><ele>134.24</ele><time>2011-11-09T11:51:26Z</time></trkpt><trkpt lat="52.0044519659" lon="-1.7059674114"><ele>134.24</ele><time>2011-11-09T11:51:34Z</time></trkpt><trkpt lat="52.0044569112" lon="-1.7058076523"><ele>133.76</ele><time>2011-11-09T11:51:43Z</time></trkpt><trkpt lat="52.0044566598" lon="-1.7056323867"><ele>134.72</ele><time>2011-11-09T11:51:52Z</time></trkpt><trkpt lat="52.0044434164" lon="-1.7054555286"><ele>133.76</ele><time>2011-11-09T11:52:01Z</time></trkpt><trkpt lat="52.0044424105" lon="-1.7053282075"><ele>133.76</ele><time>2011-11-09T11:52:09Z</time></trkpt><trkpt lat="52.0044470206" lon="-1.7052166443"><ele>133.76</ele><time>2011-11-09T11:52:17Z</time></trkpt><trkpt lat="52.0044467691" lon="-1.7051214259"><ele>133.28</ele><time>2011-11-09T11:52:26Z</time></trkpt><trkpt lat="52.0044495352" lon="-1.7050570529"><ele>133.28</ele><time>2011-11-09T11:52:33Z</time></trkpt><trkpt lat="52.0044615213" lon="-1.7050335836"><ele>132.80</ele><time>2011-11-09T11:52:42Z</time></trkpt><trkpt lat="52.0044615213" lon="-1.7050335836"><ele>132.80</ele><time>2011-11-09T11:52:49Z</time></trkpt><trkpt lat="52.0044384710" lon="-1.7050130479"><ele>133.28</ele><time>2011-11-09T11:52:57Z</time></trkpt><trkpt lat="52.0044109784" lon="-1.7050068453"><ele>132.32</ele><time>2011-11-09T11:52:59Z</time></trkpt><trkpt lat="52.0043569990" lon="-1.7049697135"><ele>132.80</ele><time>2011-11-09T11:53:03Z</time></trkpt><trkpt lat="52.0042596851" lon="-1.7049785983"><ele>132.80</ele><time>2011-11-09T11:53:12Z</time></trkpt><trkpt lat="52.0042047836" lon="-1.7050366011"><ele>133.28</ele><time>2011-11-09T11:53:20Z</time></trkpt><trkpt lat="52.0041914564" lon="-1.7050349247"><ele>132.80</ele><time>2011-11-09T11:53:26Z</time></trkpt><trkpt lat="52.0040963218" lon="-1.7050158139"><ele>133.28</ele><time>2011-11-09T11:53:32Z</time></trkpt><trkpt lat="52.0039899554" lon="-1.7050658539"><ele>132.32</ele><time>2011-11-09T11:53:40Z</time></trkpt><trkpt lat="52.0038645621" lon="-1.7051179893"><ele>132.32</ele><time>2011-11-09T11:53:50Z</time></trkpt><trkpt lat="52.0037739538" lon="-1.7051483318"><ele>131.84</ele><time>2011-11-09T11:53:58Z</time></trkpt><trkpt lat="52.0037355646" lon="-1.7051584739"><ele>131.84</ele><time>2011-11-09T11:54:02Z</time></trkpt><trkpt lat="52.0036742929" lon="-1.7051784229"><ele>131.84</ele><time>2011-11-09T11:54:08Z</time></trkpt><trkpt lat="52.0035627298" lon="-1.7052161414"><ele>131.84</ele><time>2011-11-09T11:54:18Z</time></trkpt><trkpt lat="52.0035503246" lon="-1.7052163091"><ele>131.84</ele><time>2011-11-09T11:54:19Z</time></trkpt><trkpt lat="52.0034429524" lon="-1.7052334920"><ele>131.84</ele><time>2011-11-09T11:54:28Z</time></trkpt><trkpt lat="52.0033742208" lon="-1.7052234337"><ele>131.36</ele><time>2011-11-09T11:54:37Z</time></trkpt><trkpt lat="52.0033742208" lon="-1.7052234337"><ele>131.36</ele><time>2011-11-09T11:54:51Z</time></trkpt><trkpt lat="52.0033742208" lon="-1.7052234337"><ele>131.84</ele><time>2011-11-09T11:55:04Z</time></trkpt><trkpt lat="52.0033271983" lon="-1.7052333243"><ele>132.32</ele><time>2011-11-09T11:55:11Z</time></trkpt><trkpt lat="52.0032598916" lon="-1.7052495852"><ele>131.36</ele><time>2011-11-09T11:55:18Z</time></trkpt><trkpt lat="52.0031591412" lon="-1.7052878905"><ele>131.84</ele><time>2011-11-09T11:55:26Z</time></trkpt><trkpt lat="52.0030607376" lon="-1.7053137068"><ele>131.84</ele><time>2011-11-09T11:55:35Z</time></trkpt><trkpt lat="52.0030562114" lon="-1.7053137068"><ele>131.84</ele><time>2011-11-09T11:55:45Z</time></trkpt><trkpt lat="52.0030562114" lon="-1.7053137068"><ele>131.84</ele><time>2011-11-09T11:56:01Z</time></trkpt><trkpt lat="52.0030060038" lon="-1.7053365055"><ele>131.84</ele><time>2011-11-09T11:56:11Z</time></trkpt><trkpt lat="52.0028994698" lon="-1.7053622380"><ele>131.84</ele><time>2011-11-09T11:56:20Z</time></trkpt><trkpt lat="52.0028609969" lon="-1.7053666804"><ele>131.36</ele><time>2011-11-09T11:56:27Z</time></trkpt><trkpt lat="52.0028631762" lon="-1.7053679377"><ele>131.36</ele><time>2011-11-09T11:56:37Z</time></trkpt><trkpt lat="52.0028361026" lon="-1.7053655908"><ele>131.36</ele><time>2011-11-09T11:56:44Z</time></trkpt><trkpt lat="52.0028318278" lon="-1.7053733859"><ele>131.84</ele><time>2011-11-09T11:56:46Z</time></trkpt><trkpt lat="52.0027112961" lon="-1.7053775769"><ele>131.36</ele><time>2011-11-09T11:56:56Z</time></trkpt><trkpt lat="52.0026289020" lon="-1.7053774092"><ele>130.88</ele><time>2011-11-09T11:57:03Z</time></trkpt><trkpt lat="52.0025310013" lon="-1.7053533532"><ele>130.88</ele><time>2011-11-09T11:57:11Z</time></trkpt><trkpt lat="52.0024161693" lon="-1.7053406965"><ele>130.88</ele><time>2011-11-09T11:57:21Z</time></trkpt><trkpt lat="52.0023697335" lon="-1.7053208314"><ele>130.88</ele><time>2011-11-09T11:57:25Z</time></trkpt><trkpt lat="52.0022908598" lon="-1.7053135391"><ele>130.88</ele><time>2011-11-09T11:57:32Z</time></trkpt><trkpt lat="52.0022117347" lon="-1.7052919138"><ele>130.40</ele><time>2011-11-09T11:57:39Z</time></trkpt><trkpt lat="52.0021079667" lon="-1.7052674387"><ele>130.40</ele><time>2011-11-09T11:57:48Z</time></trkpt><trkpt lat="52.0020142570" lon="-1.7052494176"><ele>130.40</ele><time>2011-11-09T11:57:56Z</time></trkpt><trkpt lat="52.0019240677" lon="-1.7052159738"><ele>129.92</ele><time>2011-11-09T11:58:04Z</time></trkpt><trkpt lat="52.0018305257" lon="-1.7051923368"><ele>129.43</ele><time>2011-11-09T11:58:12Z</time></trkpt><trkpt lat="52.0017384924" lon="-1.7051636707"><ele>128.95</ele><time>2011-11-09T11:58:20Z</time></trkpt><trkpt lat="52.0016295277" lon="-1.7051442247"><ele>128.47</ele><time>2011-11-09T11:58:29Z</time></trkpt><trkpt lat="52.0015402604" lon="-1.7051216774"><ele>128.95</ele><time>2011-11-09T11:58:37Z</time></trkpt><trkpt lat="52.0014693495" lon="-1.7050873116"><ele>128.47</ele><time>2011-11-09T11:58:44Z</time></trkpt><trkpt lat="52.0013543498" lon="-1.7051058356"><ele>128.95</ele><time>2011-11-09T11:58:53Z</time></trkpt><trkpt lat="52.0012677647" lon="-1.7051243596"><ele>128.95</ele><time>2011-11-09T11:59:00Z</time></trkpt><trkpt lat="52.0011512563" lon="-1.7051326577"><ele>128.47</ele><time>2011-11-09T11:59:09Z</time></trkpt><trkpt lat="52.0010536909" lon="-1.7051185761"><ele>128.47</ele><time>2011-11-09T11:59:17Z</time></trkpt><trkpt lat="52.0009521861" lon="-1.7051137146"><ele>128.47</ele><time>2011-11-09T11:59:26Z</time></trkpt><trkpt lat="52.0008334983" lon="-1.7051257007"><ele>127.99</ele><time>2011-11-09T11:59:36Z</time></trkpt><trkpt lat="52.0007548761" lon="-1.7051373515"><ele>128.47</ele><time>2011-11-09T11:59:43Z</time></trkpt><trkpt lat="52.0006660279" lon="-1.7051558755"><ele>128.47</ele><time>2011-11-09T11:59:51Z</time></trkpt><trkpt lat="52.0005470049" lon="-1.7051732261"><ele>127.99</ele><time>2011-11-09T12:00:01Z</time></trkpt><trkpt lat="52.0004432369" lon="-1.7051958572"><ele>128.47</ele><time>2011-11-09T12:00:10Z</time></trkpt><trkpt lat="52.0003500301" lon="-1.7052279599"><ele>127.99</ele><time>2011-11-09T12:00:18Z</time></trkpt><trkpt lat="52.0002614334" lon="-1.7052312288"><ele>127.99</ele><time>2011-11-09T12:00:27Z</time></trkpt><trkpt lat="52.0002524648" lon="-1.7052301392"><ele>127.99</ele><time>2011-11-09T12:00:35Z</time></trkpt><trkpt lat="52.0002457593" lon="-1.7052331567"><ele>127.99</ele><time>2011-11-09T12:00:36Z</time></trkpt><trkpt lat="52.0001234673" lon="-1.7052621581"><ele>127.99</ele><time>2011-11-09T12:00:46Z</time></trkpt><trkpt lat="52.0000121556" lon="-1.7052844539"><ele>128.47</ele><time>2011-11-09T12:00:55Z</time></trkpt><trkpt lat="51.9999156799" lon="-1.7052995414"><ele>127.99</ele><time>2011-11-09T12:01:03Z</time></trkpt><trkpt lat="51.9998021889" lon="-1.7053227592"><ele>127.51</ele><time>2011-11-09T12:01:13Z</time></trkpt><trkpt lat="51.9997071382" lon="-1.7053237651"><ele>127.51</ele><time>2011-11-09T12:01:21Z</time></trkpt><trkpt lat="51.9996860158" lon="-1.7053261120"><ele>127.99</ele><time>2011-11-09T12:01:28Z</time></trkpt><trkpt lat="51.9996706769" lon="-1.7053303868"><ele>127.51</ele><time>2011-11-09T12:01:32Z</time></trkpt><trkpt lat="51.9995624665" lon="-1.7053415347"><ele>127.51</ele><time>2011-11-09T12:01:42Z</time></trkpt><trkpt lat="51.9994764682" lon="-1.7053462286"><ele>127.51</ele><time>2011-11-09T12:01:50Z</time></trkpt><trkpt lat="51.9993951637" lon="-1.7053235974"><ele>127.03</ele><time>2011-11-09T12:01:59Z</time></trkpt><trkpt lat="51.9993547630" lon="-1.7053230107"><ele>127.99</ele><time>2011-11-09T12:02:03Z</time></trkpt><trkpt lat="51.9992463011" lon="-1.7053966876"><ele>127.51</ele><time>2011-11-09T12:02:13Z</time></trkpt><trkpt lat="51.9991384260" lon="-1.7054556962"><ele>127.03</ele><time>2011-11-09T12:02:23Z</time></trkpt><trkpt lat="51.9990476500" lon="-1.7054770701"><ele>127.03</ele><time>2011-11-09T12:02:31Z</time></trkpt><trkpt lat="51.9989415351" lon="-1.7054921575"><ele>127.03</ele><time>2011-11-09T12:02:40Z</time></trkpt><trkpt lat="51.9988484960" lon="-1.7055127770"><ele>127.03</ele><time>2011-11-09T12:02:48Z</time></trkpt><trkpt lat="51.9987417944" lon="-1.7055446282"><ele>127.03</ele><time>2011-11-09T12:02:57Z</time></trkpt><trkpt lat="51.9986253697" lon="-1.7055662535"><ele>126.55</ele><time>2011-11-09T12:03:07Z</time></trkpt><trkpt lat="51.9985277206" lon="-1.7055948358"><ele>126.55</ele><time>2011-11-09T12:03:15Z</time></trkpt><trkpt lat="51.9984172471" lon="-1.7056236695"><ele>127.03</ele><time>2011-11-09T12:03:24Z</time></trkpt><trkpt lat="51.9983637705" lon="-1.7056233343"><ele>126.55</ele><time>2011-11-09T12:03:29Z</time></trkpt><trkpt lat="51.9982873276" lon="-1.7056235019"><ele>126.55</ele><time>2011-11-09T12:03:36Z</time></trkpt><trkpt lat="51.9981966354" lon="-1.7056296207"><ele>126.55</ele><time>2011-11-09T12:03:44Z</time></trkpt><trkpt lat="51.9981129840" lon="-1.7056348175"><ele>126.07</ele><time>2011-11-09T12:03:51Z</time></trkpt><trkpt lat="51.9980112277" lon="-1.7056603823"><ele>125.59</ele><time>2011-11-09T12:04:00Z</time></trkpt><trkpt lat="51.9979165122" lon="-1.7056898028"><ele>126.55</ele><time>2011-11-09T12:04:08Z</time></trkpt><trkpt lat="51.9978297595" lon="-1.7057214864"><ele>126.55</ele><time>2011-11-09T12:04:17Z</time></trkpt><trkpt lat="51.9978297595" lon="-1.7057214864"><ele>127.03</ele><time>2011-11-09T12:04:28Z</time></trkpt><trkpt lat="51.9978297595" lon="-1.7057214864"><ele>126.07</ele><time>2011-11-09T12:04:40Z</time></trkpt><trkpt lat="51.9978038594" lon="-1.7057379987"><ele>126.55</ele><time>2011-11-09T12:04:46Z</time></trkpt><trkpt lat="51.9977786299" lon="-1.7057297844"><ele>126.55</ele><time>2011-11-09T12:04:48Z</time></trkpt><trkpt lat="51.9976803102" lon="-1.7057157028"><ele>126.55</ele><time>2011-11-09T12:04:56Z</time></trkpt><trkpt lat="51.9976613671" lon="-1.7057164572"><ele>126.55</ele><time>2011-11-09T12:04:58Z</time></trkpt><trkpt lat="51.9976423401" lon="-1.7057210673"><ele>126.55</ele><time>2011-11-09T12:05:00Z</time></trkpt><trkpt lat="51.9975426793" lon="-1.7057177983"><ele>126.07</ele><time>2011-11-09T12:05:09Z</time></trkpt><trkpt lat="51.9974592794" lon="-1.7056918982"><ele>125.59</ele><time>2011-11-09T12:05:17Z</time></trkpt><trkpt lat="51.9973793160" lon="-1.7056804989"><ele>126.07</ele><time>2011-11-09T12:05:24Z</time></trkpt><trkpt lat="51.9973141048" lon="-1.7056571972"><ele>125.59</ele><time>2011-11-09T12:05:30Z</time></trkpt><trkpt lat="51.9972914737" lon="-1.7056589574"><ele>126.07</ele><time>2011-11-09T12:05:32Z</time></trkpt><trkpt lat="51.9971801620" lon="-1.7055965122"><ele>126.07</ele><time>2011-11-09T12:05:41Z</time></trkpt><trkpt lat="51.9971073233" lon="-1.7055411916"><ele>125.59</ele><time>2011-11-09T12:05:48Z</time></trkpt><trkpt lat="51.9970292039" lon="-1.7055108491"><ele>126.07</ele><time>2011-11-09T12:05:55Z</time></trkpt><trkpt lat="51.9969530962" lon="-1.7054593004"><ele>125.11</ele><time>2011-11-09T12:06:02Z</time></trkpt><trkpt lat="51.9968790840" lon="-1.7054387648"><ele>125.59</ele><time>2011-11-09T12:06:09Z</time></trkpt><trkpt lat="51.9968031440" lon="-1.7053915747"><ele>125.11</ele><time>2011-11-09T12:06:17Z</time></trkpt><trkpt lat="51.9967269525" lon="-1.7053503357"><ele>125.59</ele><time>2011-11-09T12:06:26Z</time></trkpt><trkpt lat="51.9966554549" lon="-1.7052987870"><ele>125.59</ele><time>2011-11-09T12:06:32Z</time></trkpt><trkpt lat="51.9965790957" lon="-1.7052425444"><ele>125.11</ele><time>2011-11-09T12:06:40Z</time></trkpt><trkpt lat="51.9964868110" lon="-1.7051797640"><ele>125.11</ele><time>2011-11-09T12:06:49Z</time></trkpt><trkpt lat="51.9964145590" lon="-1.7051379383"><ele>125.11</ele><time>2011-11-09T12:06:56Z</time></trkpt><trkpt lat="51.9963414688" lon="-1.7051008064"><ele>125.11</ele><time>2011-11-09T12:07:04Z</time></trkpt><trkpt lat="51.9962608349" lon="-1.7050468270"><ele>124.63</ele><time>2011-11-09T12:07:11Z</time></trkpt><trkpt lat="51.9961814582" lon="-1.7049866449"><ele>125.11</ele><time>2011-11-09T12:07:19Z</time></trkpt><trkpt lat="51.9960954599" lon="-1.7049235292"><ele>124.63</ele><time>2011-11-09T12:07:27Z</time></trkpt><trkpt lat="51.9960211962" lon="-1.7048933543"><ele>124.63</ele><time>2011-11-09T12:07:34Z</time></trkpt><trkpt lat="51.9960124791" lon="-1.7048896663"><ele>124.63</ele><time>2011-11-09T12:07:35Z</time></trkpt><trkpt lat="51.9959255587" lon="-1.7048419733"><ele>124.63</ele><time>2011-11-09T12:07:44Z</time></trkpt><trkpt lat="51.9958925340" lon="-1.7048194259"><ele>124.63</ele><time>2011-11-09T12:07:47Z</time></trkpt><trkpt lat="51.9957981538" lon="-1.7047629319"><ele>125.11</ele><time>2011-11-09T12:07:56Z</time></trkpt><trkpt lat="51.9957128260" lon="-1.7047221959"><ele>124.63</ele><time>2011-11-09T12:08:04Z</time></trkpt><trkpt lat="51.9956307672" lon="-1.7046677135"><ele>125.11</ele><time>2011-11-09T12:08:12Z</time></trkpt><trkpt lat="51.9955617841" lon="-1.7046322580"><ele>124.63</ele><time>2011-11-09T12:08:20Z</time></trkpt><trkpt lat="51.9955050386" lon="-1.7045809608"><ele>125.59</ele><time>2011-11-09T12:08:26Z</time></trkpt><trkpt lat="51.9954333734" lon="-1.7045214493"><ele>125.11</ele><time>2011-11-09T12:08:33Z</time></trkpt><trkpt lat="51.9953714311" lon="-1.7044830602"><ele>124.63</ele><time>2011-11-09T12:08:39Z</time></trkpt><trkpt lat="51.9952830859" lon="-1.7044410668"><ele>125.11</ele><time>2011-11-09T12:08:48Z</time></trkpt><trkpt lat="51.9952135161" lon="-1.7044055276"><ele>124.63</ele><time>2011-11-09T12:08:55Z</time></trkpt><trkpt lat="51.9951533340" lon="-1.7043714132"><ele>124.63</ele><time>2011-11-09T12:09:01Z</time></trkpt><trkpt lat="51.9950589538" lon="-1.7042981554"><ele>125.11</ele><time>2011-11-09T12:09:09Z</time></trkpt><trkpt lat="51.9949882943" lon="-1.7042383924"><ele>124.63</ele><time>2011-11-09T12:09:15Z</time></trkpt><trkpt lat="51.9949521683" lon="-1.7042272445"><ele>125.11</ele><time>2011-11-09T12:09:19Z</time></trkpt><trkpt lat="51.9948630687" lon="-1.7041886039"><ele>124.63</ele><time>2011-11-09T12:09:28Z</time></trkpt><trkpt lat="51.9948333967" lon="-1.7041712534"><ele>124.63</ele><time>2011-11-09T12:09:31Z</time></trkpt><trkpt lat="51.9948051497" lon="-1.7041601893"><ele>124.63</ele><time>2011-11-09T12:09:34Z</time></trkpt><trkpt lat="51.9947852846" lon="-1.7041487060"><ele>124.63</ele><time>2011-11-09T12:09:36Z</time></trkpt><trkpt lat="51.9946985319" lon="-1.7040798906"><ele>124.63</ele><time>2011-11-09T12:09:45Z</time></trkpt><trkpt lat="51.9946287945" lon="-1.7040544096"><ele>124.63</ele><time>2011-11-09T12:09:53Z</time></trkpt><trkpt lat="51.9945914112" lon="-1.7040425073"><ele>124.15</ele><time>2011-11-09T12:10:02Z</time></trkpt><trkpt lat="51.9945914112" lon="-1.7040425073"><ele>124.63</ele><time>2011-11-09T12:10:12Z</time></trkpt><trkpt lat="51.9945131242" lon="-1.7040152662"><ele>124.63</ele><time>2011-11-09T12:10:18Z</time></trkpt><trkpt lat="51.9944437221" lon="-1.7040414177"><ele>124.63</ele><time>2011-11-09T12:10:26Z</time></trkpt><trkpt lat="51.9944173191" lon="-1.7040410824"><ele>124.15</ele><time>2011-11-09T12:10:37Z</time></trkpt><trkpt lat="51.9943682849" lon="-1.7040523980"><ele>124.15</ele><time>2011-11-09T12:10:45Z</time></trkpt><trkpt lat="51.9943682849" lon="-1.7040523980"><ele>123.67</ele><time>2011-11-09T12:10:55Z</time></trkpt><trkpt lat="51.9943321589" lon="-1.7040539905"><ele>123.67</ele><time>2011-11-09T12:11:03Z</time></trkpt><trkpt lat="51.9942701329" lon="-1.7040774599"><ele>123.67</ele><time>2011-11-09T12:11:11Z</time></trkpt><trkpt lat="51.9942550454" lon="-1.7040826567"><ele>123.67</ele><time>2011-11-09T12:11:12Z</time></trkpt><trkpt lat="51.9941382017" lon="-1.7040767055"><ele>123.19</ele><time>2011-11-09T12:11:21Z</time></trkpt><trkpt lat="51.9940546341" lon="-1.7040935531"><ele>123.19</ele><time>2011-11-09T12:11:31Z</time></trkpt><trkpt lat="51.9939852320" lon="-1.7040682398"><ele>123.19</ele><time>2011-11-09T12:11:39Z</time></trkpt><trkpt lat="51.9939058553" lon="-1.7040792201"><ele>122.71</ele><time>2011-11-09T12:11:47Z</time></trkpt><trkpt lat="51.9937979802" lon="-1.7040803097"><ele>122.22</ele><time>2011-11-09T12:11:55Z</time></trkpt><trkpt lat="51.9937020913" lon="-1.7041100655"><ele>122.22</ele><time>2011-11-09T12:12:04Z</time></trkpt><trkpt lat="51.9936248101" lon="-1.7041036952"><ele>122.22</ele><time>2011-11-09T12:12:15Z</time></trkpt><trkpt lat="51.9935598504" lon="-1.7040982470"><ele>121.74</ele><time>2011-11-09T12:12:23Z</time></trkpt><trkpt lat="51.9934835751" lon="-1.7041403241"><ele>122.22</ele><time>2011-11-09T12:12:30Z</time></trkpt><trkpt lat="51.9934237283" lon="-1.7041529808"><ele>121.74</ele><time>2011-11-09T12:12:36Z</time></trkpt><trkpt lat="51.9933523983" lon="-1.7041369714"><ele>121.26</ele><time>2011-11-09T12:12:43Z</time></trkpt><trkpt lat="51.9932643045" lon="-1.7041419167"><ele>121.26</ele><time>2011-11-09T12:12:50Z</time></trkpt><trkpt lat="51.9931804854" lon="-1.7041795515"><ele>121.26</ele><time>2011-11-09T12:12:58Z</time></trkpt><trkpt lat="51.9930953253" lon="-1.7041942198"><ele>121.26</ele><time>2011-11-09T12:13:07Z</time></trkpt><trkpt lat="51.9930303656" lon="-1.7041882686"><ele>121.26</ele><time>2011-11-09T12:13:14Z</time></trkpt><trkpt lat="51.9929797389" lon="-1.7041654699"><ele>121.26</ele><time>2011-11-09T12:13:23Z</time></trkpt><trkpt lat="51.9929329678" lon="-1.7040896136"><ele>121.26</ele><time>2011-11-09T12:13:30Z</time></trkpt><trkpt lat="51.9928966742" lon="-1.7040644679"><ele>121.26</ele><time>2011-11-09T12:13:35Z</time></trkpt><trkpt lat="51.9928501546" lon="-1.7040303536"><ele>121.74</ele><time>2011-11-09T12:13:41Z</time></trkpt><trkpt lat="51.9927699398" lon="-1.7040060461"><ele>120.78</ele><time>2011-11-09T12:13:48Z</time></trkpt><trkpt lat="51.9926649146" lon="-1.7040320300"><ele>121.26</ele><time>2011-11-09T12:13:58Z</time></trkpt><trkpt lat="51.9925860409" lon="-1.7040661443"><ele>121.74</ele><time>2011-11-09T12:14:05Z</time></trkpt><trkpt lat="51.9925515912" lon="-1.7040953971"><ele>121.26</ele><time>2011-11-09T12:14:10Z</time></trkpt><trkpt lat="51.9925002940" lon="-1.7040927988"><ele>121.74</ele><time>2011-11-09T12:14:18Z</time></trkpt><trkpt lat="51.9924905710" lon="-1.7041123286"><ele>121.26</ele><time>2011-11-09T12:14:23Z</time></trkpt><trkpt lat="51.9924660958" lon="-1.7041261587"><ele>121.74</ele><time>2011-11-09T12:14:25Z</time></trkpt><trkpt lat="51.9923862163" lon="-1.7041635420"><ele>121.26</ele><time>2011-11-09T12:14:34Z</time></trkpt><trkpt lat="51.9923138805" lon="-1.7041831557"><ele>121.26</ele><time>2011-11-09T12:14:41Z</time></trkpt><trkpt lat="51.9922251161" lon="-1.7042274959"><ele>121.74</ele><time>2011-11-09T12:14:49Z</time></trkpt><trkpt lat="51.9921729807" lon="-1.7042116541"><ele>122.22</ele><time>2011-11-09T12:14:58Z</time></trkpt><trkpt lat="51.9921314064" lon="-1.7042092234"><ele>121.74</ele><time>2011-11-09T12:15:05Z</time></trkpt><trkpt lat="51.9920661952" lon="-1.7042325251"><ele>122.22</ele><time>2011-11-09T12:15:13Z</time></trkpt><trkpt lat="51.9919764251" lon="-1.7042548209"><ele>122.71</ele><time>2011-11-09T12:15:22Z</time></trkpt><trkpt lat="51.9919562247" lon="-1.7042634543"><ele>122.22</ele><time>2011-11-09T12:15:24Z</time></trkpt><trkpt lat="51.9918479305" lon="-1.7043206189"><ele>122.22</ele><time>2011-11-09T12:15:33Z</time></trkpt><trkpt lat="51.9917694759" lon="-1.7043522187"><ele>122.71</ele><time>2011-11-09T12:15:40Z</time></trkpt><trkpt lat="51.9917538855" lon="-1.7043616902"><ele>122.71</ele><time>2011-11-09T12:15:42Z</time></trkpt><trkpt lat="51.9917289913" lon="-1.7043816391"><ele>122.71</ele><time>2011-11-09T12:15:50Z</time></trkpt><trkpt lat="51.9917149097" lon="-1.7043890990"><ele>122.71</ele><time>2011-11-09T12:15:57Z</time></trkpt><trkpt lat="51.9916553143" lon="-1.7044018395"><ele>122.71</ele><time>2011-11-09T12:16:06Z</time></trkpt><trkpt lat="51.9916278217" lon="-1.7044108082"><ele>122.71</ele><time>2011-11-09T12:16:09Z</time></trkpt><trkpt lat="51.9915178511" lon="-1.7044517118"><ele>122.71</ele><time>2011-11-09T12:16:19Z</time></trkpt><trkpt lat="51.9914984051" lon="-1.7044552322"><ele>122.71</ele><time>2011-11-09T12:16:22Z</time></trkpt><trkpt lat="51.9914199505" lon="-1.7044767737"><ele>122.71</ele><time>2011-11-09T12:16:29Z</time></trkpt><trkpt lat="51.9913430884" lon="-1.7045209464"><ele>122.71</ele><time>2011-11-09T12:16:35Z</time></trkpt><trkpt lat="51.9912492111" lon="-1.7045437451"><ele>122.71</ele><time>2011-11-09T12:16:44Z</time></trkpt><trkpt lat="51.9912207965" lon="-1.7045295797"><ele>122.71</ele><time>2011-11-09T12:16:51Z</time></trkpt><trkpt lat="51.9911507238" lon="-1.7046026699"><ele>123.19</ele><time>2011-11-09T12:16:59Z</time></trkpt><trkpt lat="51.9910788909" lon="-1.7046296597"><ele>122.22</ele><time>2011-11-09T12:17:07Z</time></trkpt><trkpt lat="51.9910535775" lon="-1.7046487704"><ele>122.71</ele><time>2011-11-09T12:17:09Z</time></trkpt><trkpt lat="51.9909437746" lon="-1.7047103774"><ele>122.22</ele><time>2011-11-09T12:17:17Z</time></trkpt><trkpt lat="51.9908482209" lon="-1.7047480959"><ele>122.71</ele><time>2011-11-09T12:17:26Z</time></trkpt><trkpt lat="51.9907556009" lon="-1.7047581542"><ele>122.71</ele><time>2011-11-09T12:17:36Z</time></trkpt><trkpt lat="51.9907076564" lon="-1.7047651950"><ele>122.71</ele><time>2011-11-09T12:17:40Z</time></trkpt><trkpt lat="51.9905703608" lon="-1.7047995608"><ele>123.19</ele><time>2011-11-09T12:17:51Z</time></trkpt><trkpt lat="51.9905095920" lon="-1.7048190068"><ele>122.71</ele><time>2011-11-09T12:17:56Z</time></trkpt><trkpt lat="51.9904634915" lon="-1.7048384529"><ele>122.22</ele><time>2011-11-09T12:18:01Z</time></trkpt><trkpt lat="51.9904406928" lon="-1.7048336752"><ele>122.71</ele><time>2011-11-09T12:18:03Z</time></trkpt><trkpt lat="51.9903540239" lon="-1.7048304901"><ele>122.71</ele><time>2011-11-09T12:18:12Z</time></trkpt><trkpt lat="51.9903550297" lon="-1.7047390435"><ele>122.22</ele><time>2011-11-09T12:18:20Z</time></trkpt><trkpt lat="51.9903628249" lon="-1.7046594154"><ele>122.71</ele><time>2011-11-09T12:18:27Z</time></trkpt><trkpt lat="51.9903627411" lon="-1.7046449985"><ele>122.71</ele><time>2011-11-09T12:18:28Z</time></trkpt><trkpt lat="51.9903651718" lon="-1.7045384645"><ele>122.22</ele><time>2011-11-09T12:18:34Z</time></trkpt><trkpt lat="51.9903658424" lon="-1.7044876702"><ele>122.71</ele><time>2011-11-09T12:18:37Z</time></trkpt><trkpt lat="51.9903911557" lon="-1.7043637019"><ele>122.22</ele><time>2011-11-09T12:18:44Z</time></trkpt><trkpt lat="51.9904009625" lon="-1.7043282464"><ele>122.71</ele><time>2011-11-09T12:18:46Z</time></trkpt><trkpt lat="51.9904190674" lon="-1.7041827366"><ele>122.71</ele><time>2011-11-09T12:18:54Z</time></trkpt><trkpt lat="51.9904220849" lon="-1.7040249892"><ele>122.71</ele><time>2011-11-09T12:19:03Z</time></trkpt><trkpt lat="51.9904168881" lon="-1.7039795592"><ele>122.71</ele><time>2011-11-09T12:19:06Z</time></trkpt><trkpt lat="51.9904086739" lon="-1.7038358096"><ele>122.71</ele><time>2011-11-09T12:19:13Z</time></trkpt><trkpt lat="51.9904188998" lon="-1.7037514877"><ele>122.71</ele><time>2011-11-09T12:19:19Z</time></trkpt><trkpt lat="51.9904321432" lon="-1.7035773955"><ele>122.71</ele><time>2011-11-09T12:19:30Z</time></trkpt><trkpt lat="51.9904188998" lon="-1.7035253439"><ele>122.22</ele><time>2011-11-09T12:19:33Z</time></trkpt><trkpt lat="51.9903660938" lon="-1.7035237513"><ele>122.71</ele><time>2011-11-09T12:19:40Z</time></trkpt><trkpt lat="51.9903660938" lon="-1.7035237513"><ele>122.71</ele><time>2011-11-09T12:19:49Z</time></trkpt><trkpt lat="51.9903574605" lon="-1.7035328038"><ele>122.71</ele><time>2011-11-09T12:19:56Z</time></trkpt><trkpt lat="51.9902852084" lon="-1.7035758868"><ele>122.71</ele><time>2011-11-09T12:20:04Z</time></trkpt><trkpt lat="51.9901904929" lon="-1.7036094982"><ele>122.71</ele><time>2011-11-09T12:20:14Z</time></trkpt><trkpt lat="51.9901169837" lon="-1.7036257591"><ele>122.22</ele><time>2011-11-09T12:20:20Z</time></trkpt><trkpt lat="51.9900183287" lon="-1.7036529165"><ele>122.22</ele><time>2011-11-09T12:20:30Z</time></trkpt><trkpt lat="51.9899756648" lon="-1.7036696803"><ele>121.74</ele><time>2011-11-09T12:20:34Z</time></trkpt><trkpt lat="51.9898675382" lon="-1.7037032917"><ele>121.74</ele><time>2011-11-09T12:20:42Z</time></trkpt><trkpt lat="51.9897624291" lon="-1.7037035432"><ele>121.74</ele><time>2011-11-09T12:20:50Z</time></trkpt><trkpt lat="51.9896822143" lon="-1.7037167028"><ele>121.74</ele><time>2011-11-09T12:20:57Z</time></trkpt><trkpt lat="51.9896339346" lon="-1.7037165351"><ele>121.74</ele><time>2011-11-09T12:21:04Z</time></trkpt><trkpt lat="51.9896122254" lon="-1.7037261743"><ele>121.74</ele><time>2011-11-09T12:21:15Z</time></trkpt><trkpt lat="51.9896015804" lon="-1.7037325446"><ele>121.74</ele><time>2011-11-09T12:21:24Z</time></trkpt><trkpt lat="51.9895682205" lon="-1.7037431058"><ele>121.74</ele><time>2011-11-09T12:21:35Z</time></trkpt><trkpt lat="51.9894861616" lon="-1.7037632223"><ele>121.26</ele><time>2011-11-09T12:21:43Z</time></trkpt><trkpt lat="51.9894265663" lon="-1.7037723586"><ele>120.78</ele><time>2011-11-09T12:21:52Z</time></trkpt><trkpt lat="51.9893201999" lon="-1.7037941515"><ele>121.26</ele><time>2011-11-09T12:22:01Z</time></trkpt><trkpt lat="51.9892517198" lon="-1.7038062215"><ele>120.78</ele><time>2011-11-09T12:22:08Z</time></trkpt><trkpt lat="51.9891243987" lon="-1.7037848476"><ele>120.78</ele><time>2011-11-09T12:22:17Z</time></trkpt><trkpt lat="51.9890456926" lon="-1.7037990969"><ele>120.78</ele><time>2011-11-09T12:22:26Z</time></trkpt><trkpt lat="51.9890089799" lon="-1.7038263381"><ele>120.30</ele><time>2011-11-09T12:22:33Z</time></trkpt><trkpt lat="51.9890108239" lon="-1.7038327921"><ele>120.30</ele><time>2011-11-09T12:22:44Z</time></trkpt><trkpt lat="51.9890108239" lon="-1.7038327921"><ele>120.30</ele><time>2011-11-09T12:22:51Z</time></trkpt><trkpt lat="51.9889813196" lon="-1.7038718518"><ele>120.30</ele><time>2011-11-09T12:22:59Z</time></trkpt><trkpt lat="51.9889602810" lon="-1.7038975004"><ele>119.82</ele><time>2011-11-09T12:23:11Z</time></trkpt><trkpt lat="51.9887911342" lon="-1.7039546650"><ele>120.30</ele><time>2011-11-09T12:23:20Z</time></trkpt><trkpt lat="51.9887490571" lon="-1.7040088959"><ele>119.82</ele><time>2011-11-09T12:23:28Z</time></trkpt><trkpt lat="51.9886980951" lon="-1.7040647194"><ele>119.34</ele><time>2011-11-09T12:23:37Z</time></trkpt><trkpt lat="51.9886526652" lon="-1.7041240633"><ele>119.82</ele><time>2011-11-09T12:23:44Z</time></trkpt><trkpt lat="51.9884969294" lon="-1.7041404918"><ele>119.34</ele><time>2011-11-09T12:23:53Z</time></trkpt><trkpt lat="51.9883810915" lon="-1.7041523941"><ele>119.34</ele><time>2011-11-09T12:24:03Z</time></trkpt><trkpt lat="51.9882769044" lon="-1.7041292600"><ele>119.34</ele><time>2011-11-09T12:24:10Z</time></trkpt><trkpt lat="51.9881797582" lon="-1.7041181121"><ele>118.86</ele><time>2011-11-09T12:24:17Z</time></trkpt><trkpt lat="51.9881085958" lon="-1.7041518912"><ele>118.86</ele><time>2011-11-09T12:24:25Z</time></trkpt><trkpt lat="51.9880315661" lon="-1.7041338701"><ele>118.38</ele><time>2011-11-09T12:24:32Z</time></trkpt><trkpt lat="51.9880138803" lon="-1.7041176092"><ele>118.38</ele><time>2011-11-09T12:24:40Z</time></trkpt><trkpt lat="51.9880026486" lon="-1.7041124962"><ele>117.90</ele><time>2011-11-09T12:24:44Z</time></trkpt><trkpt lat="51.9879498426" lon="-1.7040946428"><ele>117.42</ele><time>2011-11-09T12:24:48Z</time></trkpt><trkpt lat="51.9877657760" lon="-1.7040019389"><ele>117.42</ele><time>2011-11-09T12:24:59Z</time></trkpt><trkpt lat="51.9876796938" lon="-1.7040405795"><ele>117.90</ele><time>2011-11-09T12:25:07Z</time></trkpt><trkpt lat="51.9876058493" lon="-1.7040733527"><ele>116.94</ele><time>2011-11-09T12:25:15Z</time></trkpt><trkpt lat="51.9875957072" lon="-1.7040720955"><ele>117.42</ele><time>2011-11-09T12:25:16Z</time></trkpt><trkpt lat="51.9875467569" lon="-1.7040547449"><ele>117.42</ele><time>2011-11-09T12:25:19Z</time></trkpt><trkpt lat="51.9874641951" lon="-1.7040271685"><ele>117.42</ele><time>2011-11-09T12:25:26Z</time></trkpt><trkpt lat="51.9873722456" lon="-1.7040395737"><ele>117.90</ele><time>2011-11-09T12:25:34Z</time></trkpt><trkpt lat="51.9873021729" lon="-1.7040511407"><ele>117.42</ele><time>2011-11-09T12:25:40Z</time></trkpt><trkpt lat="51.9872326870" lon="-1.7040670663"><ele>117.42</ele><time>2011-11-09T12:25:47Z</time></trkpt><trkpt lat="51.9871770311" lon="-1.7041204590"><ele>117.90</ele><time>2011-11-09T12:25:55Z</time></trkpt><trkpt lat="51.9870790467" lon="-1.7041484546"><ele>117.90</ele><time>2011-11-09T12:26:03Z</time></trkpt><trkpt lat="51.9870225526" lon="-1.7042208742"><ele>117.90</ele><time>2011-11-09T12:26:09Z</time></trkpt><trkpt lat="51.9869622868" lon="-1.7043018434"><ele>118.38</ele><time>2011-11-09T12:26:16Z</time></trkpt><trkpt lat="51.9869176950" lon="-1.7043434177"><ele>118.38</ele><time>2011-11-09T12:26:23Z</time></trkpt><trkpt lat="51.9869176950" lon="-1.7043434177"><ele>118.38</ele><time>2011-11-09T12:26:35Z</time></trkpt><trkpt lat="51.9869176950" lon="-1.7043434177"><ele>118.38</ele><time>2011-11-09T12:26:50Z</time></trkpt><trkpt lat="51.9869176950" lon="-1.7043434177"><ele>118.38</ele><time>2011-11-09T12:27:01Z</time></trkpt><trkpt lat="51.9869196229" lon="-1.7043465190"><ele>118.38</ele><time>2011-11-09T12:27:08Z</time></trkpt></trkseg></trk></gpx>